<?xml version="1.0" encoding="UTF-8"?>
<gpx xmlns="http://www.topografix.com/GPX/1/1" xmlns:gpsies="http://www.gpsies.com/GPX/1/0" creator="GPSies http://www.gpsies.com - neer-moshe" version="1.1" xmlns:xsi="http://www.w3.org/2001/XMLSchema-instance" xsi:schemaLocation="http://www.topografix.com/GPX/1/1 http://www.topografix.com/GPX/1/1/gpx.xsd http://www.gpsies.com/GPX/1/0 http://www.gpsies.com/gpsies.xsd">
  <metadata>
    <name>neer-moshe</name>
    <author>
      <name>igor968</name>
      <link href="http://www.gpsies.com/mapUser.do?username=igor968">
        <text>igor968 on GPSies.com</text>
        <type>GPSiesUserOnWeb</type>
      </link>
    </author>
    <link href="http://www.gpsies.com/map.do?fileId=ikbxhkvirfqxgaet">
      <text>neer-moshe on GPSies.com</text>
      <type>trackOnWeb</type>
    </link>
    <time>2016-02-25T15:29:40Z</time>
    <extensions>
      <gpsies:property>round trip</gpsies:property>
      <gpsies:trackLengthMeter>16509.657428359347</gpsies:trackLengthMeter>
      <gpsies:totalAscentMeter>162.0</gpsies:totalAscentMeter>
      <gpsies:totalDescentMeter>162.0</gpsies:totalDescentMeter>
      <gpsies:minHeightMeter>89.0</gpsies:minHeightMeter>
      <gpsies:maxHeightMeter>147.0</gpsies:maxHeightMeter>
    </extensions>
  </metadata>
  <trk>
    <name>neer-moshe on GPSies.com</name>
    <link href="http://www.gpsies.com/map.do?fileId=ikbxhkvirfqxgaet">
      <type>trackOnWeb</type>
    </link>
    <link href="http://www.gpsies.com/charts/ik/map/ikbxhkvirfqxgaet_map.png">
      <type>elevationChartUrlMap</type>
    </link>
    <link href="http://www.gpsies.com/charts/ik/mapThumb/ikbxhkvirfqxgaet_mapThumb.png">
      <type>elevationChartUrlMapThumb</type>
    </link>
    <link href="http://www.gpsies.com/charts/ik/tab/ikbxhkvirfqxgaet_tab.png">
      <type>elevationChartUrlTab</type>
    </link>
    <trkseg>
      <trkpt lat="31.51013290" lon="34.64807860">
        <ele>97.000000</ele>
        <time>2010-01-01T00:00:00Z</time>
      </trkpt>
      <trkpt lat="31.51013000" lon="34.64807000">
        <ele>97.000000</ele>
        <time>2010-01-01T00:00:00Z</time>
      </trkpt>
      <trkpt lat="31.51014000" lon="34.64802000">
        <ele>97.000000</ele>
        <time>2010-01-01T00:00:02Z</time>
      </trkpt>
      <trkpt lat="31.51008000" lon="34.64787000">
        <ele>97.000000</ele>
        <time>2010-01-01T00:00:07Z</time>
      </trkpt>
      <trkpt lat="31.51005000" lon="34.64774000">
        <ele>98.000000</ele>
        <time>2010-01-01T00:00:12Z</time>
      </trkpt>
      <trkpt lat="31.51005000" lon="34.64758000">
        <ele>99.000000</ele>
        <time>2010-01-01T00:00:17Z</time>
      </trkpt>
      <trkpt lat="31.51011000" lon="34.64729000">
        <ele>100.00000</ele>
        <time>2010-01-01T00:00:27Z</time>
      </trkpt>
      <trkpt lat="31.51035000" lon="34.64640000">
        <ele>107.00000</ele>
        <time>2010-01-01T00:00:59Z</time>
      </trkpt>
      <trkpt lat="31.51037000" lon="34.64628000">
        <ele>107.00000</ele>
        <time>2010-01-01T00:01:03Z</time>
      </trkpt>
      <trkpt lat="31.51032000" lon="34.64577000">
        <ele>109.00000</ele>
        <time>2010-01-01T00:01:21Z</time>
      </trkpt>
      <trkpt lat="31.51038000" lon="34.64536000">
        <ele>108.00000</ele>
        <time>2010-01-01T00:01:35Z</time>
      </trkpt>
      <trkpt lat="31.51039000" lon="34.64506000">
        <ele>107.00000</ele>
        <time>2010-01-01T00:01:45Z</time>
      </trkpt>
      <trkpt lat="31.51039000" lon="34.64489000">
        <ele>106.00000</ele>
        <time>2010-01-01T00:01:51Z</time>
      </trkpt>
      <trkpt lat="31.51035000" lon="34.64456000">
        <ele>106.00000</ele>
        <time>2010-01-01T00:02:03Z</time>
      </trkpt>
      <trkpt lat="31.51035000" lon="34.64439000">
        <ele>106.00000</ele>
        <time>2010-01-01T00:02:08Z</time>
      </trkpt>
      <trkpt lat="31.51042000" lon="34.64389000">
        <ele>105.00000</ele>
        <time>2010-01-01T00:02:26Z</time>
      </trkpt>
      <trkpt lat="31.51044000" lon="34.64355000">
        <ele>104.00000</ele>
        <time>2010-01-01T00:02:37Z</time>
      </trkpt>
      <trkpt lat="31.51041000" lon="34.64313000">
        <ele>104.00000</ele>
        <time>2010-01-01T00:02:52Z</time>
      </trkpt>
      <trkpt lat="31.51041000" lon="34.64271000">
        <ele>101.00000</ele>
        <time>2010-01-01T00:03:06Z</time>
      </trkpt>
      <trkpt lat="31.51037000" lon="34.64259000">
        <ele>101.00000</ele>
        <time>2010-01-01T00:03:10Z</time>
      </trkpt>
      <trkpt lat="31.51027000" lon="34.64232000">
        <ele>101.00000</ele>
        <time>2010-01-01T00:03:21Z</time>
      </trkpt>
      <trkpt lat="31.51007000" lon="34.64192000">
        <ele>105.00000</ele>
        <time>2010-01-01T00:03:36Z</time>
      </trkpt>
      <trkpt lat="31.51007000" lon="34.64191000">
        <ele>105.00000</ele>
        <time>2010-01-01T00:03:37Z</time>
      </trkpt>
      <trkpt lat="31.50985000" lon="34.64195000">
        <ele>107.00000</ele>
        <time>2010-01-01T00:03:46Z</time>
      </trkpt>
      <trkpt lat="31.50975000" lon="34.64192000">
        <ele>107.00000</ele>
        <time>2010-01-01T00:03:50Z</time>
      </trkpt>
      <trkpt lat="31.50962000" lon="34.64184000">
        <ele>108.00000</ele>
        <time>2010-01-01T00:03:56Z</time>
      </trkpt>
      <trkpt lat="31.50954000" lon="34.64176000">
        <ele>108.00000</ele>
        <time>2010-01-01T00:04:00Z</time>
      </trkpt>
      <trkpt lat="31.50932000" lon="34.64161000">
        <ele>108.00000</ele>
        <time>2010-01-01T00:04:10Z</time>
      </trkpt>
      <trkpt lat="31.50913000" lon="34.64151000">
        <ele>107.00000</ele>
        <time>2010-01-01T00:04:18Z</time>
      </trkpt>
      <trkpt lat="31.50898000" lon="34.64149000">
        <ele>106.00000</ele>
        <time>2010-01-01T00:04:24Z</time>
      </trkpt>
      <trkpt lat="31.50889000" lon="34.64143000">
        <ele>106.00000</ele>
        <time>2010-01-01T00:04:29Z</time>
      </trkpt>
      <trkpt lat="31.50883000" lon="34.64133000">
        <ele>105.00000</ele>
        <time>2010-01-01T00:04:33Z</time>
      </trkpt>
      <trkpt lat="31.50872000" lon="34.64123000">
        <ele>105.00000</ele>
        <time>2010-01-01T00:04:38Z</time>
      </trkpt>
      <trkpt lat="31.50857000" lon="34.64099000">
        <ele>106.00000</ele>
        <time>2010-01-01T00:04:48Z</time>
      </trkpt>
      <trkpt lat="31.50846000" lon="34.64088000">
        <ele>105.00000</ele>
        <time>2010-01-01T00:04:54Z</time>
      </trkpt>
      <trkpt lat="31.50833000" lon="34.64058000">
        <ele>101.00000</ele>
        <time>2010-01-01T00:05:06Z</time>
      </trkpt>
      <trkpt lat="31.50826000" lon="34.64049000">
        <ele>99.000000</ele>
        <time>2010-01-01T00:05:10Z</time>
      </trkpt>
      <trkpt lat="31.50811000" lon="34.64038000">
        <ele>98.000000</ele>
        <time>2010-01-01T00:05:17Z</time>
      </trkpt>
      <trkpt lat="31.50779000" lon="34.64037000">
        <ele>98.000000</ele>
        <time>2010-01-01T00:05:30Z</time>
      </trkpt>
      <trkpt lat="31.50776000" lon="34.64035000">
        <ele>98.000000</ele>
        <time>2010-01-01T00:05:31Z</time>
      </trkpt>
      <trkpt lat="31.50772000" lon="34.64028000">
        <ele>98.000000</ele>
        <time>2010-01-01T00:05:34Z</time>
      </trkpt>
      <trkpt lat="31.50778000" lon="34.64003000">
        <ele>96.000000</ele>
        <time>2010-01-01T00:05:43Z</time>
      </trkpt>
      <trkpt lat="31.50778000" lon="34.63999000">
        <ele>95.000000</ele>
        <time>2010-01-01T00:05:44Z</time>
      </trkpt>
      <trkpt lat="31.50775000" lon="34.63992000">
        <ele>95.000000</ele>
        <time>2010-01-01T00:05:47Z</time>
      </trkpt>
      <trkpt lat="31.50756000" lon="34.63980000">
        <ele>95.000000</ele>
        <time>2010-01-01T00:05:56Z</time>
      </trkpt>
      <trkpt lat="31.50736000" lon="34.63957000">
        <ele>93.000000</ele>
        <time>2010-01-01T00:06:07Z</time>
      </trkpt>
      <trkpt lat="31.50729000" lon="34.63958000">
        <ele>93.000000</ele>
        <time>2010-01-01T00:06:10Z</time>
      </trkpt>
      <trkpt lat="31.50703000" lon="34.63972000">
        <ele>94.000000</ele>
        <time>2010-01-01T00:06:21Z</time>
      </trkpt>
      <trkpt lat="31.50646000" lon="34.63995000">
        <ele>91.000000</ele>
        <time>2010-01-01T00:06:45Z</time>
      </trkpt>
      <trkpt lat="31.50632000" lon="34.63999000">
        <ele>90.000000</ele>
        <time>2010-01-01T00:06:51Z</time>
      </trkpt>
      <trkpt lat="31.50614000" lon="34.64000000">
        <ele>89.000000</ele>
        <time>2010-01-01T00:06:58Z</time>
      </trkpt>
      <trkpt lat="31.50600000" lon="34.64004000">
        <ele>89.000000</ele>
        <time>2010-01-01T00:07:04Z</time>
      </trkpt>
      <trkpt lat="31.50585000" lon="34.64015000">
        <ele>89.000000</ele>
        <time>2010-01-01T00:07:11Z</time>
      </trkpt>
      <trkpt lat="31.50579000" lon="34.64020000">
        <ele>89.000000</ele>
        <time>2010-01-01T00:07:14Z</time>
      </trkpt>
      <trkpt lat="31.50576000" lon="34.64020000">
        <ele>89.000000</ele>
        <time>2010-01-01T00:07:15Z</time>
      </trkpt>
      <trkpt lat="31.50564000" lon="34.64010000">
        <ele>90.000000</ele>
        <time>2010-01-01T00:07:21Z</time>
      </trkpt>
      <trkpt lat="31.50551000" lon="34.64005000">
        <ele>91.000000</ele>
        <time>2010-01-01T00:07:27Z</time>
      </trkpt>
      <trkpt lat="31.50544000" lon="34.64001000">
        <ele>91.000000</ele>
        <time>2010-01-01T00:07:30Z</time>
      </trkpt>
      <trkpt lat="31.50544000" lon="34.63969000">
        <ele>91.000000</ele>
        <time>2010-01-01T00:07:41Z</time>
      </trkpt>
      <trkpt lat="31.50537000" lon="34.63940000">
        <ele>91.000000</ele>
        <time>2010-01-01T00:07:51Z</time>
      </trkpt>
      <trkpt lat="31.50523000" lon="34.63908000">
        <ele>91.000000</ele>
        <time>2010-01-01T00:08:03Z</time>
      </trkpt>
      <trkpt lat="31.50515000" lon="34.63896000">
        <ele>91.000000</ele>
        <time>2010-01-01T00:08:08Z</time>
      </trkpt>
      <trkpt lat="31.50514000" lon="34.63896000">
        <ele>91.000000</ele>
        <time>2010-01-01T00:08:09Z</time>
      </trkpt>
      <trkpt lat="31.50508000" lon="34.63897000">
        <ele>90.000000</ele>
        <time>2010-01-01T00:08:11Z</time>
      </trkpt>
      <trkpt lat="31.50496000" lon="34.63904000">
        <ele>90.000000</ele>
        <time>2010-01-01T00:08:17Z</time>
      </trkpt>
      <trkpt lat="31.50489000" lon="34.63904000">
        <ele>90.000000</ele>
        <time>2010-01-01T00:08:19Z</time>
      </trkpt>
      <trkpt lat="31.50456000" lon="34.63888000">
        <ele>91.000000</ele>
        <time>2010-01-01T00:08:34Z</time>
      </trkpt>
      <trkpt lat="31.50443000" lon="34.63883000">
        <ele>92.000000</ele>
        <time>2010-01-01T00:08:39Z</time>
      </trkpt>
      <trkpt lat="31.50425000" lon="34.63884000">
        <ele>91.000000</ele>
        <time>2010-01-01T00:08:46Z</time>
      </trkpt>
      <trkpt lat="31.50401000" lon="34.63892000">
        <ele>91.000000</ele>
        <time>2010-01-01T00:08:56Z</time>
      </trkpt>
      <trkpt lat="31.50361000" lon="34.63892000">
        <ele>93.000000</ele>
        <time>2010-01-01T00:09:12Z</time>
      </trkpt>
      <trkpt lat="31.50351000" lon="34.63896000">
        <ele>93.000000</ele>
        <time>2010-01-01T00:09:17Z</time>
      </trkpt>
      <trkpt lat="31.50342000" lon="34.63903000">
        <ele>94.000000</ele>
        <time>2010-01-01T00:09:21Z</time>
      </trkpt>
      <trkpt lat="31.50315000" lon="34.63931000">
        <ele>95.000000</ele>
        <time>2010-01-01T00:09:35Z</time>
      </trkpt>
      <trkpt lat="31.50308000" lon="34.63941000">
        <ele>95.000000</ele>
        <time>2010-01-01T00:09:40Z</time>
      </trkpt>
      <trkpt lat="31.50291000" lon="34.63987000">
        <ele>91.000000</ele>
        <time>2010-01-01T00:09:57Z</time>
      </trkpt>
      <trkpt lat="31.50279000" lon="34.64013000">
        <ele>90.000000</ele>
        <time>2010-01-01T00:10:07Z</time>
      </trkpt>
      <trkpt lat="31.50271000" lon="34.64027000">
        <ele>91.000000</ele>
        <time>2010-01-01T00:10:13Z</time>
      </trkpt>
      <trkpt lat="31.50258000" lon="34.64041000">
        <ele>92.000000</ele>
        <time>2010-01-01T00:10:20Z</time>
      </trkpt>
      <trkpt lat="31.50244000" lon="34.64046000">
        <ele>93.000000</ele>
        <time>2010-01-01T00:10:26Z</time>
      </trkpt>
      <trkpt lat="31.50231000" lon="34.64041000">
        <ele>93.000000</ele>
        <time>2010-01-01T00:10:31Z</time>
      </trkpt>
      <trkpt lat="31.50210000" lon="34.64025000">
        <ele>93.000000</ele>
        <time>2010-01-01T00:10:41Z</time>
      </trkpt>
      <trkpt lat="31.50197000" lon="34.64017000">
        <ele>92.000000</ele>
        <time>2010-01-01T00:10:47Z</time>
      </trkpt>
      <trkpt lat="31.50188000" lon="34.64030000">
        <ele>92.000000</ele>
        <time>2010-01-01T00:10:53Z</time>
      </trkpt>
      <trkpt lat="31.50189000" lon="34.64031000">
        <ele>92.000000</ele>
        <time>2010-01-01T00:10:53Z</time>
      </trkpt>
      <trkpt lat="31.50189000" lon="34.64030000">
        <ele>92.000000</ele>
        <time>2010-01-01T00:10:54Z</time>
      </trkpt>
      <trkpt lat="31.50182000" lon="34.64033000">
        <ele>92.000000</ele>
        <time>2010-01-01T00:10:57Z</time>
      </trkpt>
      <trkpt lat="31.50175000" lon="34.64033000">
        <ele>92.000000</ele>
        <time>2010-01-01T00:10:59Z</time>
      </trkpt>
      <trkpt lat="31.50154000" lon="34.64024000">
        <ele>92.000000</ele>
        <time>2010-01-01T00:11:08Z</time>
      </trkpt>
      <trkpt lat="31.50142000" lon="34.64016000">
        <ele>92.000000</ele>
        <time>2010-01-01T00:11:14Z</time>
      </trkpt>
      <trkpt lat="31.50130000" lon="34.64007000">
        <ele>93.000000</ele>
        <time>2010-01-01T00:11:19Z</time>
      </trkpt>
      <trkpt lat="31.50112000" lon="34.63986000">
        <ele>93.000000</ele>
        <time>2010-01-01T00:11:30Z</time>
      </trkpt>
      <trkpt lat="31.50085000" lon="34.63947000">
        <ele>92.000000</ele>
        <time>2010-01-01T00:11:47Z</time>
      </trkpt>
      <trkpt lat="31.50071000" lon="34.63917000">
        <ele>92.000000</ele>
        <time>2010-01-01T00:11:58Z</time>
      </trkpt>
      <trkpt lat="31.50032000" lon="34.63790000">
        <ele>94.000000</ele>
        <time>2010-01-01T00:12:45Z</time>
      </trkpt>
      <trkpt lat="31.50021000" lon="34.63768000">
        <ele>95.000000</ele>
        <time>2010-01-01T00:12:53Z</time>
      </trkpt>
      <trkpt lat="31.50001000" lon="34.63744000">
        <ele>95.000000</ele>
        <time>2010-01-01T00:13:05Z</time>
      </trkpt>
      <trkpt lat="31.49990000" lon="34.63734000">
        <ele>95.000000</ele>
        <time>2010-01-01T00:13:10Z</time>
      </trkpt>
      <trkpt lat="31.49962000" lon="34.63716000">
        <ele>94.000000</ele>
        <time>2010-01-01T00:13:23Z</time>
      </trkpt>
      <trkpt lat="31.49931000" lon="34.63704000">
        <ele>95.000000</ele>
        <time>2010-01-01T00:13:36Z</time>
      </trkpt>
      <trkpt lat="31.49896000" lon="34.63695000">
        <ele>97.000000</ele>
        <time>2010-01-01T00:13:50Z</time>
      </trkpt>
      <trkpt lat="31.49895000" lon="34.63695000">
        <ele>97.000000</ele>
        <time>2010-01-01T00:13:51Z</time>
      </trkpt>
      <trkpt lat="31.49886000" lon="34.63698000">
        <ele>98.000000</ele>
        <time>2010-01-01T00:13:55Z</time>
      </trkpt>
      <trkpt lat="31.49872000" lon="34.63698000">
        <ele>97.000000</ele>
        <time>2010-01-01T00:14:00Z</time>
      </trkpt>
      <trkpt lat="31.49834000" lon="34.63686000">
        <ele>96.000000</ele>
        <time>2010-01-01T00:14:16Z</time>
      </trkpt>
      <trkpt lat="31.49816000" lon="34.63686000">
        <ele>96.000000</ele>
        <time>2010-01-01T00:14:23Z</time>
      </trkpt>
      <trkpt lat="31.49799000" lon="34.63690000">
        <ele>97.000000</ele>
        <time>2010-01-01T00:14:30Z</time>
      </trkpt>
      <trkpt lat="31.49794000" lon="34.63696000">
        <ele>97.000000</ele>
        <time>2010-01-01T00:14:33Z</time>
      </trkpt>
      <trkpt lat="31.49792000" lon="34.63704000">
        <ele>98.000000</ele>
        <time>2010-01-01T00:14:36Z</time>
      </trkpt>
      <trkpt lat="31.49795000" lon="34.63720000">
        <ele>99.000000</ele>
        <time>2010-01-01T00:14:41Z</time>
      </trkpt>
      <trkpt lat="31.49794000" lon="34.63728000">
        <ele>100.00000</ele>
        <time>2010-01-01T00:14:44Z</time>
      </trkpt>
      <trkpt lat="31.49784000" lon="34.63739000">
        <ele>102.00000</ele>
        <time>2010-01-01T00:14:50Z</time>
      </trkpt>
      <trkpt lat="31.49771000" lon="34.63746000">
        <ele>103.00000</ele>
        <time>2010-01-01T00:14:55Z</time>
      </trkpt>
      <trkpt lat="31.49749000" lon="34.63745000">
        <ele>104.00000</ele>
        <time>2010-01-01T00:15:04Z</time>
      </trkpt>
      <trkpt lat="31.49718000" lon="34.63734000">
        <ele>102.00000</ele>
        <time>2010-01-01T00:15:17Z</time>
      </trkpt>
      <trkpt lat="31.49704000" lon="34.63733000">
        <ele>101.00000</ele>
        <time>2010-01-01T00:15:23Z</time>
      </trkpt>
      <trkpt lat="31.49674000" lon="34.63746000">
        <ele>99.000000</ele>
        <time>2010-01-01T00:15:36Z</time>
      </trkpt>
      <trkpt lat="31.49627000" lon="34.63775000">
        <ele>98.000000</ele>
        <time>2010-01-01T00:15:57Z</time>
      </trkpt>
      <trkpt lat="31.49600000" lon="34.63785000">
        <ele>99.000000</ele>
        <time>2010-01-01T00:16:08Z</time>
      </trkpt>
      <trkpt lat="31.49592000" lon="34.63785000">
        <ele>99.000000</ele>
        <time>2010-01-01T00:16:11Z</time>
      </trkpt>
      <trkpt lat="31.49589000" lon="34.63783000">
        <ele>99.000000</ele>
        <time>2010-01-01T00:16:13Z</time>
      </trkpt>
      <trkpt lat="31.49572000" lon="34.63769000">
        <ele>100.00000</ele>
        <time>2010-01-01T00:16:21Z</time>
      </trkpt>
      <trkpt lat="31.49564000" lon="34.63768000">
        <ele>100.00000</ele>
        <time>2010-01-01T00:16:24Z</time>
      </trkpt>
      <trkpt lat="31.49554000" lon="34.63772000">
        <ele>100.00000</ele>
        <time>2010-01-01T00:16:29Z</time>
      </trkpt>
      <trkpt lat="31.49537000" lon="34.63787000">
        <ele>102.00000</ele>
        <time>2010-01-01T00:16:37Z</time>
      </trkpt>
      <trkpt lat="31.49533000" lon="34.63793000">
        <ele>102.00000</ele>
        <time>2010-01-01T00:16:40Z</time>
      </trkpt>
      <trkpt lat="31.49529000" lon="34.63810000">
        <ele>101.00000</ele>
        <time>2010-01-01T00:16:46Z</time>
      </trkpt>
      <trkpt lat="31.49531000" lon="34.63831000">
        <ele>101.00000</ele>
        <time>2010-01-01T00:16:53Z</time>
      </trkpt>
      <trkpt lat="31.49535000" lon="34.63847000">
        <ele>101.00000</ele>
        <time>2010-01-01T00:16:59Z</time>
      </trkpt>
      <trkpt lat="31.49544000" lon="34.63853000">
        <ele>101.00000</ele>
        <time>2010-01-01T00:17:03Z</time>
      </trkpt>
      <trkpt lat="31.49551000" lon="34.63854000">
        <ele>100.00000</ele>
        <time>2010-01-01T00:17:06Z</time>
      </trkpt>
      <trkpt lat="31.49557000" lon="34.63858000">
        <ele>100.00000</ele>
        <time>2010-01-01T00:17:08Z</time>
      </trkpt>
      <trkpt lat="31.49563000" lon="34.63862000">
        <ele>101.00000</ele>
        <time>2010-01-01T00:17:11Z</time>
      </trkpt>
      <trkpt lat="31.49570000" lon="34.63875000">
        <ele>102.00000</ele>
        <time>2010-01-01T00:17:16Z</time>
      </trkpt>
      <trkpt lat="31.49570000" lon="34.63874000">
        <ele>102.00000</ele>
        <time>2010-01-01T00:17:17Z</time>
      </trkpt>
      <trkpt lat="31.49571000" lon="34.63885000">
        <ele>103.00000</ele>
        <time>2010-01-01T00:17:20Z</time>
      </trkpt>
      <trkpt lat="31.49569000" lon="34.63888000">
        <ele>103.00000</ele>
        <time>2010-01-01T00:17:22Z</time>
      </trkpt>
      <trkpt lat="31.49564000" lon="34.63893000">
        <ele>103.00000</ele>
        <time>2010-01-01T00:17:24Z</time>
      </trkpt>
      <trkpt lat="31.49553000" lon="34.63896000">
        <ele>103.00000</ele>
        <time>2010-01-01T00:17:29Z</time>
      </trkpt>
      <trkpt lat="31.49528000" lon="34.63896000">
        <ele>102.00000</ele>
        <time>2010-01-01T00:17:39Z</time>
      </trkpt>
      <trkpt lat="31.49491000" lon="34.63879000">
        <ele>103.00000</ele>
        <time>2010-01-01T00:17:55Z</time>
      </trkpt>
      <trkpt lat="31.49481000" lon="34.63880000">
        <ele>103.00000</ele>
        <time>2010-01-01T00:17:59Z</time>
      </trkpt>
      <trkpt lat="31.49474000" lon="34.63883000">
        <ele>103.00000</ele>
        <time>2010-01-01T00:18:02Z</time>
      </trkpt>
      <trkpt lat="31.49463000" lon="34.63883000">
        <ele>103.00000</ele>
        <time>2010-01-01T00:18:06Z</time>
      </trkpt>
      <trkpt lat="31.49456000" lon="34.63880000">
        <ele>103.00000</ele>
        <time>2010-01-01T00:18:09Z</time>
      </trkpt>
      <trkpt lat="31.49446000" lon="34.63878000">
        <ele>103.00000</ele>
        <time>2010-01-01T00:18:13Z</time>
      </trkpt>
      <trkpt lat="31.49423000" lon="34.63866000">
        <ele>103.00000</ele>
        <time>2010-01-01T00:18:23Z</time>
      </trkpt>
      <trkpt lat="31.49398000" lon="34.63861000">
        <ele>103.00000</ele>
        <time>2010-01-01T00:18:33Z</time>
      </trkpt>
      <trkpt lat="31.49388000" lon="34.63857000">
        <ele>103.00000</ele>
        <time>2010-01-01T00:18:38Z</time>
      </trkpt>
      <trkpt lat="31.49375000" lon="34.63838000">
        <ele>103.00000</ele>
        <time>2010-01-01T00:18:46Z</time>
      </trkpt>
      <trkpt lat="31.49344000" lon="34.63815000">
        <ele>103.00000</ele>
        <time>2010-01-01T00:19:01Z</time>
      </trkpt>
      <trkpt lat="31.49319000" lon="34.63814000">
        <ele>104.00000</ele>
        <time>2010-01-01T00:19:11Z</time>
      </trkpt>
      <trkpt lat="31.49313000" lon="34.63810000">
        <ele>104.00000</ele>
        <time>2010-01-01T00:19:13Z</time>
      </trkpt>
      <trkpt lat="31.49299000" lon="34.63786000">
        <ele>104.00000</ele>
        <time>2010-01-01T00:19:23Z</time>
      </trkpt>
      <trkpt lat="31.49276000" lon="34.63759000">
        <ele>104.00000</ele>
        <time>2010-01-01T00:19:36Z</time>
      </trkpt>
      <trkpt lat="31.49272000" lon="34.63752000">
        <ele>104.00000</ele>
        <time>2010-01-01T00:19:39Z</time>
      </trkpt>
      <trkpt lat="31.49267000" lon="34.63736000">
        <ele>105.00000</ele>
        <time>2010-01-01T00:19:45Z</time>
      </trkpt>
      <trkpt lat="31.49264000" lon="34.63715000">
        <ele>107.00000</ele>
        <time>2010-01-01T00:19:52Z</time>
      </trkpt>
      <trkpt lat="31.49261000" lon="34.63708000">
        <ele>107.00000</ele>
        <time>2010-01-01T00:19:55Z</time>
      </trkpt>
      <trkpt lat="31.49252000" lon="34.63701000">
        <ele>108.00000</ele>
        <time>2010-01-01T00:19:59Z</time>
      </trkpt>
      <trkpt lat="31.49240000" lon="34.63694000">
        <ele>109.00000</ele>
        <time>2010-01-01T00:20:05Z</time>
      </trkpt>
      <trkpt lat="31.49221000" lon="34.63674000">
        <ele>109.00000</ele>
        <time>2010-01-01T00:20:15Z</time>
      </trkpt>
      <trkpt lat="31.49206000" lon="34.63662000">
        <ele>109.00000</ele>
        <time>2010-01-01T00:20:22Z</time>
      </trkpt>
      <trkpt lat="31.49194000" lon="34.63647000">
        <ele>109.00000</ele>
        <time>2010-01-01T00:20:29Z</time>
      </trkpt>
      <trkpt lat="31.49181000" lon="34.63622000">
        <ele>109.00000</ele>
        <time>2010-01-01T00:20:39Z</time>
      </trkpt>
      <trkpt lat="31.49172000" lon="34.63609000">
        <ele>109.00000</ele>
        <time>2010-01-01T00:20:45Z</time>
      </trkpt>
      <trkpt lat="31.49159000" lon="34.63594000">
        <ele>109.00000</ele>
        <time>2010-01-01T00:20:52Z</time>
      </trkpt>
      <trkpt lat="31.49143000" lon="34.63571000">
        <ele>109.00000</ele>
        <time>2010-01-01T00:21:02Z</time>
      </trkpt>
      <trkpt lat="31.49122000" lon="34.63548000">
        <ele>109.00000</ele>
        <time>2010-01-01T00:21:14Z</time>
      </trkpt>
      <trkpt lat="31.49110000" lon="34.63540000">
        <ele>110.00000</ele>
        <time>2010-01-01T00:21:19Z</time>
      </trkpt>
      <trkpt lat="31.49103000" lon="34.63538000">
        <ele>110.00000</ele>
        <time>2010-01-01T00:21:22Z</time>
      </trkpt>
      <trkpt lat="31.49094000" lon="34.63531000">
        <ele>110.00000</ele>
        <time>2010-01-01T00:21:27Z</time>
      </trkpt>
      <trkpt lat="31.49087000" lon="34.63522000">
        <ele>110.00000</ele>
        <time>2010-01-01T00:21:31Z</time>
      </trkpt>
      <trkpt lat="31.49079000" lon="34.63506000">
        <ele>110.00000</ele>
        <time>2010-01-01T00:21:37Z</time>
      </trkpt>
      <trkpt lat="31.49079000" lon="34.63505000">
        <ele>110.00000</ele>
        <time>2010-01-01T00:21:37Z</time>
      </trkpt>
      <trkpt lat="31.49049000" lon="34.63511000">
        <ele>110.00000</ele>
        <time>2010-01-01T00:21:50Z</time>
      </trkpt>
      <trkpt lat="31.49038000" lon="34.63511000">
        <ele>110.00000</ele>
        <time>2010-01-01T00:21:54Z</time>
      </trkpt>
      <trkpt lat="31.49035000" lon="34.63509000">
        <ele>110.00000</ele>
        <time>2010-01-01T00:21:55Z</time>
      </trkpt>
      <trkpt lat="31.49035000" lon="34.63500000">
        <ele>110.00000</ele>
        <time>2010-01-01T00:21:59Z</time>
      </trkpt>
      <trkpt lat="31.49040000" lon="34.63485000">
        <ele>110.00000</ele>
        <time>2010-01-01T00:22:04Z</time>
      </trkpt>
      <trkpt lat="31.49041000" lon="34.63476000">
        <ele>110.00000</ele>
        <time>2010-01-01T00:22:07Z</time>
      </trkpt>
      <trkpt lat="31.49040000" lon="34.63460000">
        <ele>111.00000</ele>
        <time>2010-01-01T00:22:13Z</time>
      </trkpt>
      <trkpt lat="31.49037000" lon="34.63448000">
        <ele>111.00000</ele>
        <time>2010-01-01T00:22:17Z</time>
      </trkpt>
      <trkpt lat="31.49031000" lon="34.63442000">
        <ele>111.00000</ele>
        <time>2010-01-01T00:22:20Z</time>
      </trkpt>
      <trkpt lat="31.49002000" lon="34.63424000">
        <ele>110.00000</ele>
        <time>2010-01-01T00:22:33Z</time>
      </trkpt>
      <trkpt lat="31.49002000" lon="34.63423000">
        <ele>110.00000</ele>
        <time>2010-01-01T00:22:33Z</time>
      </trkpt>
      <trkpt lat="31.48989000" lon="34.63411000">
        <ele>111.00000</ele>
        <time>2010-01-01T00:22:40Z</time>
      </trkpt>
      <trkpt lat="31.48960000" lon="34.63395000">
        <ele>111.00000</ele>
        <time>2010-01-01T00:22:53Z</time>
      </trkpt>
      <trkpt lat="31.48944000" lon="34.63377000">
        <ele>112.00000</ele>
        <time>2010-01-01T00:23:02Z</time>
      </trkpt>
      <trkpt lat="31.48939000" lon="34.63381000">
        <ele>112.00000</ele>
        <time>2010-01-01T00:23:04Z</time>
      </trkpt>
      <trkpt lat="31.48935000" lon="34.63392000">
        <ele>112.00000</ele>
        <time>2010-01-01T00:23:08Z</time>
      </trkpt>
      <trkpt lat="31.48933000" lon="34.63425000">
        <ele>112.00000</ele>
        <time>2010-01-01T00:23:20Z</time>
      </trkpt>
      <trkpt lat="31.48931000" lon="34.63433000">
        <ele>113.00000</ele>
        <time>2010-01-01T00:23:22Z</time>
      </trkpt>
      <trkpt lat="31.48926000" lon="34.63438000">
        <ele>113.00000</ele>
        <time>2010-01-01T00:23:25Z</time>
      </trkpt>
      <trkpt lat="31.48919000" lon="34.63440000">
        <ele>114.00000</ele>
        <time>2010-01-01T00:23:28Z</time>
      </trkpt>
      <trkpt lat="31.48902000" lon="34.63436000">
        <ele>114.00000</ele>
        <time>2010-01-01T00:23:35Z</time>
      </trkpt>
      <trkpt lat="31.48899000" lon="34.63438000">
        <ele>114.00000</ele>
        <time>2010-01-01T00:23:36Z</time>
      </trkpt>
      <trkpt lat="31.48896000" lon="34.63446000">
        <ele>115.00000</ele>
        <time>2010-01-01T00:23:39Z</time>
      </trkpt>
      <trkpt lat="31.48899000" lon="34.63453000">
        <ele>116.00000</ele>
        <time>2010-01-01T00:23:42Z</time>
      </trkpt>
      <trkpt lat="31.48902000" lon="34.63455000">
        <ele>116.00000</ele>
        <time>2010-01-01T00:23:43Z</time>
      </trkpt>
      <trkpt lat="31.48923000" lon="34.63460000">
        <ele>115.00000</ele>
        <time>2010-01-01T00:23:52Z</time>
      </trkpt>
      <trkpt lat="31.48928000" lon="34.63466000">
        <ele>115.00000</ele>
        <time>2010-01-01T00:23:55Z</time>
      </trkpt>
      <trkpt lat="31.48936000" lon="34.63485000">
        <ele>116.00000</ele>
        <time>2010-01-01T00:24:02Z</time>
      </trkpt>
      <trkpt lat="31.48952000" lon="34.63508000">
        <ele>114.00000</ele>
        <time>2010-01-01T00:24:12Z</time>
      </trkpt>
      <trkpt lat="31.48954000" lon="34.63516000">
        <ele>115.00000</ele>
        <time>2010-01-01T00:24:15Z</time>
      </trkpt>
      <trkpt lat="31.48953000" lon="34.63533000">
        <ele>116.00000</ele>
        <time>2010-01-01T00:24:21Z</time>
      </trkpt>
      <trkpt lat="31.48948000" lon="34.63543000">
        <ele>117.00000</ele>
        <time>2010-01-01T00:24:25Z</time>
      </trkpt>
      <trkpt lat="31.48942000" lon="34.63545000">
        <ele>118.00000</ele>
        <time>2010-01-01T00:24:27Z</time>
      </trkpt>
      <trkpt lat="31.48932000" lon="34.63539000">
        <ele>120.00000</ele>
        <time>2010-01-01T00:24:32Z</time>
      </trkpt>
      <trkpt lat="31.48918000" lon="34.63519000">
        <ele>123.00000</ele>
        <time>2010-01-01T00:24:41Z</time>
      </trkpt>
      <trkpt lat="31.48912000" lon="34.63514000">
        <ele>123.00000</ele>
        <time>2010-01-01T00:24:44Z</time>
      </trkpt>
      <trkpt lat="31.48906000" lon="34.63512000">
        <ele>123.00000</ele>
        <time>2010-01-01T00:24:46Z</time>
      </trkpt>
      <trkpt lat="31.48873000" lon="34.63508000">
        <ele>124.00000</ele>
        <time>2010-01-01T00:24:59Z</time>
      </trkpt>
      <trkpt lat="31.48850000" lon="34.63497000">
        <ele>124.00000</ele>
        <time>2010-01-01T00:25:09Z</time>
      </trkpt>
      <trkpt lat="31.48844000" lon="34.63492000">
        <ele>123.00000</ele>
        <time>2010-01-01T00:25:12Z</time>
      </trkpt>
      <trkpt lat="31.48836000" lon="34.63479000">
        <ele>123.00000</ele>
        <time>2010-01-01T00:25:18Z</time>
      </trkpt>
      <trkpt lat="31.48827000" lon="34.63472000">
        <ele>122.00000</ele>
        <time>2010-01-01T00:25:22Z</time>
      </trkpt>
      <trkpt lat="31.48809000" lon="34.63468000">
        <ele>122.00000</ele>
        <time>2010-01-01T00:25:29Z</time>
      </trkpt>
      <trkpt lat="31.48796000" lon="34.63475000">
        <ele>123.00000</ele>
        <time>2010-01-01T00:25:35Z</time>
      </trkpt>
      <trkpt lat="31.48795000" lon="34.63479000">
        <ele>124.00000</ele>
        <time>2010-01-01T00:25:36Z</time>
      </trkpt>
      <trkpt lat="31.48797000" lon="34.63491000">
        <ele>125.00000</ele>
        <time>2010-01-01T00:25:41Z</time>
      </trkpt>
      <trkpt lat="31.48796000" lon="34.63499000">
        <ele>126.00000</ele>
        <time>2010-01-01T00:25:43Z</time>
      </trkpt>
      <trkpt lat="31.48785000" lon="34.63510000">
        <ele>127.00000</ele>
        <time>2010-01-01T00:25:49Z</time>
      </trkpt>
      <trkpt lat="31.48784000" lon="34.63514000">
        <ele>127.00000</ele>
        <time>2010-01-01T00:25:51Z</time>
      </trkpt>
      <trkpt lat="31.48788000" lon="34.63520000">
        <ele>128.00000</ele>
        <time>2010-01-01T00:25:53Z</time>
      </trkpt>
      <trkpt lat="31.48802000" lon="34.63524000">
        <ele>128.00000</ele>
        <time>2010-01-01T00:25:59Z</time>
      </trkpt>
      <trkpt lat="31.48812000" lon="34.63530000">
        <ele>128.00000</ele>
        <time>2010-01-01T00:26:03Z</time>
      </trkpt>
      <trkpt lat="31.48816000" lon="34.63537000">
        <ele>128.00000</ele>
        <time>2010-01-01T00:26:06Z</time>
      </trkpt>
      <trkpt lat="31.48817000" lon="34.63545000">
        <ele>128.00000</ele>
        <time>2010-01-01T00:26:09Z</time>
      </trkpt>
      <trkpt lat="31.48815000" lon="34.63553000">
        <ele>129.00000</ele>
        <time>2010-01-01T00:26:12Z</time>
      </trkpt>
      <trkpt lat="31.48807000" lon="34.63564000">
        <ele>129.00000</ele>
        <time>2010-01-01T00:26:17Z</time>
      </trkpt>
      <trkpt lat="31.48791000" lon="34.63579000">
        <ele>130.00000</ele>
        <time>2010-01-01T00:26:25Z</time>
      </trkpt>
      <trkpt lat="31.48775000" lon="34.63607000">
        <ele>130.00000</ele>
        <time>2010-01-01T00:26:37Z</time>
      </trkpt>
      <trkpt lat="31.48766000" lon="34.63638000">
        <ele>130.00000</ele>
        <time>2010-01-01T00:26:48Z</time>
      </trkpt>
      <trkpt lat="31.48766000" lon="34.63664000">
        <ele>130.00000</ele>
        <time>2010-01-01T00:26:57Z</time>
      </trkpt>
      <trkpt lat="31.48763000" lon="34.63671000">
        <ele>130.00000</ele>
        <time>2010-01-01T00:26:59Z</time>
      </trkpt>
      <trkpt lat="31.48760000" lon="34.63673000">
        <ele>130.00000</ele>
        <time>2010-01-01T00:27:01Z</time>
      </trkpt>
      <trkpt lat="31.48756000" lon="34.63672000">
        <ele>130.00000</ele>
        <time>2010-01-01T00:27:02Z</time>
      </trkpt>
      <trkpt lat="31.48753000" lon="34.63664000">
        <ele>130.00000</ele>
        <time>2010-01-01T00:27:05Z</time>
      </trkpt>
      <trkpt lat="31.48754000" lon="34.63643000">
        <ele>130.00000</ele>
        <time>2010-01-01T00:27:13Z</time>
      </trkpt>
      <trkpt lat="31.48747000" lon="34.63624000">
        <ele>129.00000</ele>
        <time>2010-01-01T00:27:20Z</time>
      </trkpt>
      <trkpt lat="31.48746000" lon="34.63615000">
        <ele>128.00000</ele>
        <time>2010-01-01T00:27:23Z</time>
      </trkpt>
      <trkpt lat="31.48756000" lon="34.63584000">
        <ele>129.00000</ele>
        <time>2010-01-01T00:27:34Z</time>
      </trkpt>
      <trkpt lat="31.48761000" lon="34.63555000">
        <ele>129.00000</ele>
        <time>2010-01-01T00:27:44Z</time>
      </trkpt>
      <trkpt lat="31.48760000" lon="34.63533000">
        <ele>128.00000</ele>
        <time>2010-01-01T00:27:52Z</time>
      </trkpt>
      <trkpt lat="31.48762000" lon="34.63498000">
        <ele>127.00000</ele>
        <time>2010-01-01T00:28:04Z</time>
      </trkpt>
      <trkpt lat="31.48762000" lon="34.63497000">
        <ele>127.00000</ele>
        <time>2010-01-01T00:28:04Z</time>
      </trkpt>
      <trkpt lat="31.48759000" lon="34.63488000">
        <ele>126.00000</ele>
        <time>2010-01-01T00:28:07Z</time>
      </trkpt>
      <trkpt lat="31.48752000" lon="34.63479000">
        <ele>127.00000</ele>
        <time>2010-01-01T00:28:11Z</time>
      </trkpt>
      <trkpt lat="31.48744000" lon="34.63465000">
        <ele>125.00000</ele>
        <time>2010-01-01T00:28:17Z</time>
      </trkpt>
      <trkpt lat="31.48737000" lon="34.63465000">
        <ele>125.00000</ele>
        <time>2010-01-01T00:28:20Z</time>
      </trkpt>
      <trkpt lat="31.48734000" lon="34.63467000">
        <ele>124.00000</ele>
        <time>2010-01-01T00:28:21Z</time>
      </trkpt>
      <trkpt lat="31.48731000" lon="34.63474000">
        <ele>125.00000</ele>
        <time>2010-01-01T00:28:24Z</time>
      </trkpt>
      <trkpt lat="31.48729000" lon="34.63491000">
        <ele>125.00000</ele>
        <time>2010-01-01T00:28:30Z</time>
      </trkpt>
      <trkpt lat="31.48727000" lon="34.63499000">
        <ele>125.00000</ele>
        <time>2010-01-01T00:28:33Z</time>
      </trkpt>
      <trkpt lat="31.48718000" lon="34.63505000">
        <ele>124.00000</ele>
        <time>2010-01-01T00:28:37Z</time>
      </trkpt>
      <trkpt lat="31.48712000" lon="34.63516000">
        <ele>124.00000</ele>
        <time>2010-01-01T00:28:41Z</time>
      </trkpt>
      <trkpt lat="31.48714000" lon="34.63524000">
        <ele>125.00000</ele>
        <time>2010-01-01T00:28:44Z</time>
      </trkpt>
      <trkpt lat="31.48719000" lon="34.63529000">
        <ele>125.00000</ele>
        <time>2010-01-01T00:28:47Z</time>
      </trkpt>
      <trkpt lat="31.48733000" lon="34.63533000">
        <ele>126.00000</ele>
        <time>2010-01-01T00:28:53Z</time>
      </trkpt>
      <trkpt lat="31.48736000" lon="34.63535000">
        <ele>127.00000</ele>
        <time>2010-01-01T00:28:54Z</time>
      </trkpt>
      <trkpt lat="31.48738000" lon="34.63543000">
        <ele>127.00000</ele>
        <time>2010-01-01T00:28:57Z</time>
      </trkpt>
      <trkpt lat="31.48738000" lon="34.63547000">
        <ele>127.00000</ele>
        <time>2010-01-01T00:28:58Z</time>
      </trkpt>
      <trkpt lat="31.48732000" lon="34.63558000">
        <ele>127.00000</ele>
        <time>2010-01-01T00:29:03Z</time>
      </trkpt>
      <trkpt lat="31.48717000" lon="34.63569000">
        <ele>126.00000</ele>
        <time>2010-01-01T00:29:10Z</time>
      </trkpt>
      <trkpt lat="31.48714000" lon="34.63568000">
        <ele>126.00000</ele>
        <time>2010-01-01T00:29:11Z</time>
      </trkpt>
      <trkpt lat="31.48708000" lon="34.63563000">
        <ele>125.00000</ele>
        <time>2010-01-01T00:29:14Z</time>
      </trkpt>
      <trkpt lat="31.48700000" lon="34.63549000">
        <ele>125.00000</ele>
        <time>2010-01-01T00:29:20Z</time>
      </trkpt>
      <trkpt lat="31.48694000" lon="34.63544000">
        <ele>124.00000</ele>
        <time>2010-01-01T00:29:23Z</time>
      </trkpt>
      <trkpt lat="31.48684000" lon="34.63541000">
        <ele>124.00000</ele>
        <time>2010-01-01T00:29:27Z</time>
      </trkpt>
      <trkpt lat="31.48678000" lon="34.63537000">
        <ele>124.00000</ele>
        <time>2010-01-01T00:29:29Z</time>
      </trkpt>
      <trkpt lat="31.48673000" lon="34.63530000">
        <ele>124.00000</ele>
        <time>2010-01-01T00:29:33Z</time>
      </trkpt>
      <trkpt lat="31.48665000" lon="34.63511000">
        <ele>123.00000</ele>
        <time>2010-01-01T00:29:40Z</time>
      </trkpt>
      <trkpt lat="31.48662000" lon="34.63509000">
        <ele>123.00000</ele>
        <time>2010-01-01T00:29:41Z</time>
      </trkpt>
      <trkpt lat="31.48655000" lon="34.63508000">
        <ele>122.00000</ele>
        <time>2010-01-01T00:29:44Z</time>
      </trkpt>
      <trkpt lat="31.48645000" lon="34.63514000">
        <ele>122.00000</ele>
        <time>2010-01-01T00:29:49Z</time>
      </trkpt>
      <trkpt lat="31.48640000" lon="34.63520000">
        <ele>122.00000</ele>
        <time>2010-01-01T00:29:51Z</time>
      </trkpt>
      <trkpt lat="31.48635000" lon="34.63531000">
        <ele>123.00000</ele>
        <time>2010-01-01T00:29:56Z</time>
      </trkpt>
      <trkpt lat="31.48632000" lon="34.63543000">
        <ele>123.00000</ele>
        <time>2010-01-01T00:30:00Z</time>
      </trkpt>
      <trkpt lat="31.48633000" lon="34.63551000">
        <ele>124.00000</ele>
        <time>2010-01-01T00:30:03Z</time>
      </trkpt>
      <trkpt lat="31.48637000" lon="34.63563000">
        <ele>125.00000</ele>
        <time>2010-01-01T00:30:07Z</time>
      </trkpt>
      <trkpt lat="31.48653000" lon="34.63586000">
        <ele>126.00000</ele>
        <time>2010-01-01T00:30:17Z</time>
      </trkpt>
      <trkpt lat="31.48659000" lon="34.63606000">
        <ele>126.00000</ele>
        <time>2010-01-01T00:30:24Z</time>
      </trkpt>
      <trkpt lat="31.48669000" lon="34.63612000">
        <ele>126.00000</ele>
        <time>2010-01-01T00:30:29Z</time>
      </trkpt>
      <trkpt lat="31.48671000" lon="34.63615000">
        <ele>126.00000</ele>
        <time>2010-01-01T00:30:30Z</time>
      </trkpt>
      <trkpt lat="31.48671000" lon="34.63624000">
        <ele>126.00000</ele>
        <time>2010-01-01T00:30:33Z</time>
      </trkpt>
      <trkpt lat="31.48668000" lon="34.63631000">
        <ele>127.00000</ele>
        <time>2010-01-01T00:30:36Z</time>
      </trkpt>
      <trkpt lat="31.48665000" lon="34.63634000">
        <ele>127.00000</ele>
        <time>2010-01-01T00:30:38Z</time>
      </trkpt>
      <trkpt lat="31.48659000" lon="34.63636000">
        <ele>128.00000</ele>
        <time>2010-01-01T00:30:40Z</time>
      </trkpt>
      <trkpt lat="31.48642000" lon="34.63628000">
        <ele>128.00000</ele>
        <time>2010-01-01T00:30:47Z</time>
      </trkpt>
      <trkpt lat="31.48635000" lon="34.63628000">
        <ele>128.00000</ele>
        <time>2010-01-01T00:30:50Z</time>
      </trkpt>
      <trkpt lat="31.48604000" lon="34.63638000">
        <ele>127.00000</ele>
        <time>2010-01-01T00:31:03Z</time>
      </trkpt>
      <trkpt lat="31.48589000" lon="34.63638000">
        <ele>127.00000</ele>
        <time>2010-01-01T00:31:09Z</time>
      </trkpt>
      <trkpt lat="31.48586000" lon="34.63636000">
        <ele>127.00000</ele>
        <time>2010-01-01T00:31:10Z</time>
      </trkpt>
      <trkpt lat="31.48579000" lon="34.63637000">
        <ele>127.00000</ele>
        <time>2010-01-01T00:31:13Z</time>
      </trkpt>
      <trkpt lat="31.48573000" lon="34.63641000">
        <ele>127.00000</ele>
        <time>2010-01-01T00:31:16Z</time>
      </trkpt>
      <trkpt lat="31.48568000" lon="34.63648000">
        <ele>128.00000</ele>
        <time>2010-01-01T00:31:19Z</time>
      </trkpt>
      <trkpt lat="31.48562000" lon="34.63667000">
        <ele>130.00000</ele>
        <time>2010-01-01T00:31:26Z</time>
      </trkpt>
      <trkpt lat="31.48559000" lon="34.63670000">
        <ele>130.00000</ele>
        <time>2010-01-01T00:31:28Z</time>
      </trkpt>
      <trkpt lat="31.48558000" lon="34.63668000">
        <ele>130.00000</ele>
        <time>2010-01-01T00:31:28Z</time>
      </trkpt>
      <trkpt lat="31.48557000" lon="34.63647000">
        <ele>127.00000</ele>
        <time>2010-01-01T00:31:36Z</time>
      </trkpt>
      <trkpt lat="31.48550000" lon="34.63628000">
        <ele>127.00000</ele>
        <time>2010-01-01T00:31:43Z</time>
      </trkpt>
      <trkpt lat="31.48549000" lon="34.63619000">
        <ele>127.00000</ele>
        <time>2010-01-01T00:31:46Z</time>
      </trkpt>
      <trkpt lat="31.48553000" lon="34.63603000">
        <ele>127.00000</ele>
        <time>2010-01-01T00:31:51Z</time>
      </trkpt>
      <trkpt lat="31.48558000" lon="34.63596000">
        <ele>126.00000</ele>
        <time>2010-01-01T00:31:55Z</time>
      </trkpt>
      <trkpt lat="31.48569000" lon="34.63586000">
        <ele>126.00000</ele>
        <time>2010-01-01T00:32:00Z</time>
      </trkpt>
      <trkpt lat="31.48574000" lon="34.63580000">
        <ele>126.00000</ele>
        <time>2010-01-01T00:32:03Z</time>
      </trkpt>
      <trkpt lat="31.48581000" lon="34.63556000">
        <ele>125.00000</ele>
        <time>2010-01-01T00:32:12Z</time>
      </trkpt>
      <trkpt lat="31.48585000" lon="34.63549000">
        <ele>124.00000</ele>
        <time>2010-01-01T00:32:15Z</time>
      </trkpt>
      <trkpt lat="31.48609000" lon="34.63532000">
        <ele>122.00000</ele>
        <time>2010-01-01T00:32:26Z</time>
      </trkpt>
      <trkpt lat="31.48615000" lon="34.63527000">
        <ele>122.00000</ele>
        <time>2010-01-01T00:32:29Z</time>
      </trkpt>
      <trkpt lat="31.48623000" lon="34.63519000">
        <ele>122.00000</ele>
        <time>2010-01-01T00:32:33Z</time>
      </trkpt>
      <trkpt lat="31.48636000" lon="34.63493000">
        <ele>121.00000</ele>
        <time>2010-01-01T00:32:43Z</time>
      </trkpt>
      <trkpt lat="31.48666000" lon="34.63451000">
        <ele>119.00000</ele>
        <time>2010-01-01T00:33:02Z</time>
      </trkpt>
      <trkpt lat="31.48668000" lon="34.63443000">
        <ele>118.00000</ele>
        <time>2010-01-01T00:33:05Z</time>
      </trkpt>
      <trkpt lat="31.48665000" lon="34.63431000">
        <ele>118.00000</ele>
        <time>2010-01-01T00:33:09Z</time>
      </trkpt>
      <trkpt lat="31.48660000" lon="34.63425000">
        <ele>117.00000</ele>
        <time>2010-01-01T00:33:12Z</time>
      </trkpt>
      <trkpt lat="31.48630000" lon="34.63410000">
        <ele>118.00000</ele>
        <time>2010-01-01T00:33:25Z</time>
      </trkpt>
      <trkpt lat="31.48616000" lon="34.63412000">
        <ele>118.00000</ele>
        <time>2010-01-01T00:33:31Z</time>
      </trkpt>
      <trkpt lat="31.48609000" lon="34.63411000">
        <ele>119.00000</ele>
        <time>2010-01-01T00:33:33Z</time>
      </trkpt>
      <trkpt lat="31.48597000" lon="34.63402000">
        <ele>120.00000</ele>
        <time>2010-01-01T00:33:39Z</time>
      </trkpt>
      <trkpt lat="31.48589000" lon="34.63400000">
        <ele>121.00000</ele>
        <time>2010-01-01T00:33:42Z</time>
      </trkpt>
      <trkpt lat="31.48565000" lon="34.63404000">
        <ele>122.00000</ele>
        <time>2010-01-01T00:33:52Z</time>
      </trkpt>
      <trkpt lat="31.48562000" lon="34.63407000">
        <ele>122.00000</ele>
        <time>2010-01-01T00:33:54Z</time>
      </trkpt>
      <trkpt lat="31.48558000" lon="34.63418000">
        <ele>122.00000</ele>
        <time>2010-01-01T00:33:58Z</time>
      </trkpt>
      <trkpt lat="31.48557000" lon="34.63426000">
        <ele>122.00000</ele>
        <time>2010-01-01T00:34:01Z</time>
      </trkpt>
      <trkpt lat="31.48558000" lon="34.63435000">
        <ele>122.00000</ele>
        <time>2010-01-01T00:34:04Z</time>
      </trkpt>
      <trkpt lat="31.48564000" lon="34.63445000">
        <ele>121.00000</ele>
        <time>2010-01-01T00:34:08Z</time>
      </trkpt>
      <trkpt lat="31.48566000" lon="34.63453000">
        <ele>121.00000</ele>
        <time>2010-01-01T00:34:11Z</time>
      </trkpt>
      <trkpt lat="31.48569000" lon="34.63495000">
        <ele>124.00000</ele>
        <time>2010-01-01T00:34:25Z</time>
      </trkpt>
      <trkpt lat="31.48568000" lon="34.63508000">
        <ele>124.00000</ele>
        <time>2010-01-01T00:34:29Z</time>
      </trkpt>
      <trkpt lat="31.48557000" lon="34.63530000">
        <ele>125.00000</ele>
        <time>2010-01-01T00:34:38Z</time>
      </trkpt>
      <trkpt lat="31.48552000" lon="34.63550000">
        <ele>126.00000</ele>
        <time>2010-01-01T00:34:45Z</time>
      </trkpt>
      <trkpt lat="31.48540000" lon="34.63576000">
        <ele>127.00000</ele>
        <time>2010-01-01T00:34:55Z</time>
      </trkpt>
      <trkpt lat="31.48535000" lon="34.63580000">
        <ele>127.00000</ele>
        <time>2010-01-01T00:34:58Z</time>
      </trkpt>
      <trkpt lat="31.48535000" lon="34.63581000">
        <ele>127.00000</ele>
        <time>2010-01-01T00:34:58Z</time>
      </trkpt>
      <trkpt lat="31.48521000" lon="34.63584000">
        <ele>128.00000</ele>
        <time>2010-01-01T00:35:04Z</time>
      </trkpt>
      <trkpt lat="31.48508000" lon="34.63576000">
        <ele>127.00000</ele>
        <time>2010-01-01T00:35:10Z</time>
      </trkpt>
      <trkpt lat="31.48501000" lon="34.63574000">
        <ele>127.00000</ele>
        <time>2010-01-01T00:35:13Z</time>
      </trkpt>
      <trkpt lat="31.48483000" lon="34.63574000">
        <ele>127.00000</ele>
        <time>2010-01-01T00:35:20Z</time>
      </trkpt>
      <trkpt lat="31.48473000" lon="34.63570000">
        <ele>127.00000</ele>
        <time>2010-01-01T00:35:24Z</time>
      </trkpt>
      <trkpt lat="31.48468000" lon="34.63564000">
        <ele>127.00000</ele>
        <time>2010-01-01T00:35:27Z</time>
      </trkpt>
      <trkpt lat="31.48465000" lon="34.63543000">
        <ele>128.00000</ele>
        <time>2010-01-01T00:35:34Z</time>
      </trkpt>
      <trkpt lat="31.48462000" lon="34.63535000">
        <ele>129.00000</ele>
        <time>2010-01-01T00:35:37Z</time>
      </trkpt>
      <trkpt lat="31.48453000" lon="34.63530000">
        <ele>130.00000</ele>
        <time>2010-01-01T00:35:41Z</time>
      </trkpt>
      <trkpt lat="31.48446000" lon="34.63530000">
        <ele>130.00000</ele>
        <time>2010-01-01T00:35:44Z</time>
      </trkpt>
      <trkpt lat="31.48437000" lon="34.63537000">
        <ele>130.00000</ele>
        <time>2010-01-01T00:35:48Z</time>
      </trkpt>
      <trkpt lat="31.48429000" lon="34.63539000">
        <ele>130.00000</ele>
        <time>2010-01-01T00:35:52Z</time>
      </trkpt>
      <trkpt lat="31.48429000" lon="34.63538000">
        <ele>130.00000</ele>
        <time>2010-01-01T00:35:52Z</time>
      </trkpt>
      <trkpt lat="31.48424000" lon="34.63535000">
        <ele>131.00000</ele>
        <time>2010-01-01T00:35:54Z</time>
      </trkpt>
      <trkpt lat="31.48410000" lon="34.63521000">
        <ele>132.00000</ele>
        <time>2010-01-01T00:36:02Z</time>
      </trkpt>
      <trkpt lat="31.48395000" lon="34.63510000">
        <ele>132.00000</ele>
        <time>2010-01-01T00:36:09Z</time>
      </trkpt>
      <trkpt lat="31.48385000" lon="34.63505000">
        <ele>132.00000</ele>
        <time>2010-01-01T00:36:13Z</time>
      </trkpt>
      <trkpt lat="31.48367000" lon="34.63505000">
        <ele>131.00000</ele>
        <time>2010-01-01T00:36:20Z</time>
      </trkpt>
      <trkpt lat="31.48342000" lon="34.63488000">
        <ele>134.00000</ele>
        <time>2010-01-01T00:36:32Z</time>
      </trkpt>
      <trkpt lat="31.48325000" lon="34.63490000">
        <ele>134.00000</ele>
        <time>2010-01-01T00:36:39Z</time>
      </trkpt>
      <trkpt lat="31.48314000" lon="34.63488000">
        <ele>135.00000</ele>
        <time>2010-01-01T00:36:43Z</time>
      </trkpt>
      <trkpt lat="31.48299000" lon="34.63493000">
        <ele>135.00000</ele>
        <time>2010-01-01T00:36:49Z</time>
      </trkpt>
      <trkpt lat="31.48298000" lon="34.63493000">
        <ele>135.00000</ele>
        <time>2010-01-01T00:36:50Z</time>
      </trkpt>
      <trkpt lat="31.48290000" lon="34.63491000">
        <ele>136.00000</ele>
        <time>2010-01-01T00:36:53Z</time>
      </trkpt>
      <trkpt lat="31.48284000" lon="34.63487000">
        <ele>136.00000</ele>
        <time>2010-01-01T00:36:56Z</time>
      </trkpt>
      <trkpt lat="31.48275000" lon="34.63474000">
        <ele>137.00000</ele>
        <time>2010-01-01T00:37:01Z</time>
      </trkpt>
      <trkpt lat="31.48266000" lon="34.63466000">
        <ele>138.00000</ele>
        <time>2010-01-01T00:37:06Z</time>
      </trkpt>
      <trkpt lat="31.48265000" lon="34.63462000">
        <ele>138.00000</ele>
        <time>2010-01-01T00:37:07Z</time>
      </trkpt>
      <trkpt lat="31.48264000" lon="34.63454000">
        <ele>139.00000</ele>
        <time>2010-01-01T00:37:10Z</time>
      </trkpt>
      <trkpt lat="31.48261000" lon="34.63446000">
        <ele>140.00000</ele>
        <time>2010-01-01T00:37:13Z</time>
      </trkpt>
      <trkpt lat="31.48252000" lon="34.63440000">
        <ele>140.00000</ele>
        <time>2010-01-01T00:37:17Z</time>
      </trkpt>
      <trkpt lat="31.48248000" lon="34.63441000">
        <ele>140.00000</ele>
        <time>2010-01-01T00:37:19Z</time>
      </trkpt>
      <trkpt lat="31.48246000" lon="34.63444000">
        <ele>140.00000</ele>
        <time>2010-01-01T00:37:20Z</time>
      </trkpt>
      <trkpt lat="31.48244000" lon="34.63452000">
        <ele>139.00000</ele>
        <time>2010-01-01T00:37:23Z</time>
      </trkpt>
      <trkpt lat="31.48246000" lon="34.63473000">
        <ele>138.00000</ele>
        <time>2010-01-01T00:37:30Z</time>
      </trkpt>
      <trkpt lat="31.48242000" lon="34.63480000">
        <ele>138.00000</ele>
        <time>2010-01-01T00:37:33Z</time>
      </trkpt>
      <trkpt lat="31.48239000" lon="34.63482000">
        <ele>138.00000</ele>
        <time>2010-01-01T00:37:34Z</time>
      </trkpt>
      <trkpt lat="31.48232000" lon="34.63483000">
        <ele>138.00000</ele>
        <time>2010-01-01T00:37:37Z</time>
      </trkpt>
      <trkpt lat="31.48225000" lon="34.63482000">
        <ele>139.00000</ele>
        <time>2010-01-01T00:37:40Z</time>
      </trkpt>
      <trkpt lat="31.48206000" lon="34.63471000">
        <ele>141.00000</ele>
        <time>2010-01-01T00:37:49Z</time>
      </trkpt>
      <trkpt lat="31.48195000" lon="34.63468000">
        <ele>143.00000</ele>
        <time>2010-01-01T00:37:53Z</time>
      </trkpt>
      <trkpt lat="31.48181000" lon="34.63469000">
        <ele>144.00000</ele>
        <time>2010-01-01T00:37:59Z</time>
      </trkpt>
      <trkpt lat="31.48174000" lon="34.63471000">
        <ele>144.00000</ele>
        <time>2010-01-01T00:38:02Z</time>
      </trkpt>
      <trkpt lat="31.48171000" lon="34.63473000">
        <ele>144.00000</ele>
        <time>2010-01-01T00:38:03Z</time>
      </trkpt>
      <trkpt lat="31.48163000" lon="34.63487000">
        <ele>146.00000</ele>
        <time>2010-01-01T00:38:09Z</time>
      </trkpt>
      <trkpt lat="31.48156000" lon="34.63486000">
        <ele>147.00000</ele>
        <time>2010-01-01T00:38:12Z</time>
      </trkpt>
      <trkpt lat="31.48152000" lon="34.63479000">
        <ele>147.00000</ele>
        <time>2010-01-01T00:38:14Z</time>
      </trkpt>
      <trkpt lat="31.48154000" lon="34.63471000">
        <ele>146.00000</ele>
        <time>2010-01-01T00:38:17Z</time>
      </trkpt>
      <trkpt lat="31.48170000" lon="34.63455000">
        <ele>145.00000</ele>
        <time>2010-01-01T00:38:26Z</time>
      </trkpt>
      <trkpt lat="31.48184000" lon="34.63450000">
        <ele>145.00000</ele>
        <time>2010-01-01T00:38:32Z</time>
      </trkpt>
      <trkpt lat="31.48202000" lon="34.63436000">
        <ele>144.00000</ele>
        <time>2010-01-01T00:38:40Z</time>
      </trkpt>
      <trkpt lat="31.48206000" lon="34.63429000">
        <ele>144.00000</ele>
        <time>2010-01-01T00:38:43Z</time>
      </trkpt>
      <trkpt lat="31.48205000" lon="34.63419000">
        <ele>145.00000</ele>
        <time>2010-01-01T00:38:47Z</time>
      </trkpt>
      <trkpt lat="31.48205000" lon="34.63418000">
        <ele>145.00000</ele>
        <time>2010-01-01T00:38:47Z</time>
      </trkpt>
      <trkpt lat="31.48204000" lon="34.63411000">
        <ele>145.00000</ele>
        <time>2010-01-01T00:38:49Z</time>
      </trkpt>
      <trkpt lat="31.48195000" lon="34.63395000">
        <ele>145.00000</ele>
        <time>2010-01-01T00:38:56Z</time>
      </trkpt>
      <trkpt lat="31.48160000" lon="34.63386000">
        <ele>146.00000</ele>
        <time>2010-01-01T00:39:10Z</time>
      </trkpt>
      <trkpt lat="31.48147000" lon="34.63372000">
        <ele>147.00000</ele>
        <time>2010-01-01T00:39:17Z</time>
      </trkpt>
      <trkpt lat="31.48140000" lon="34.63358000">
        <ele>147.00000</ele>
        <time>2010-01-01T00:39:23Z</time>
      </trkpt>
      <trkpt lat="31.48141000" lon="34.63349000">
        <ele>147.00000</ele>
        <time>2010-01-01T00:39:26Z</time>
      </trkpt>
      <trkpt lat="31.48161000" lon="34.63331000">
        <ele>145.00000</ele>
        <time>2010-01-01T00:39:36Z</time>
      </trkpt>
      <trkpt lat="31.48169000" lon="34.63307000">
        <ele>144.00000</ele>
        <time>2010-01-01T00:39:45Z</time>
      </trkpt>
      <trkpt lat="31.48175000" lon="34.63303000">
        <ele>144.00000</ele>
        <time>2010-01-01T00:39:48Z</time>
      </trkpt>
      <trkpt lat="31.48210000" lon="34.63315000">
        <ele>142.00000</ele>
        <time>2010-01-01T00:40:02Z</time>
      </trkpt>
      <trkpt lat="31.48224000" lon="34.63314000">
        <ele>142.00000</ele>
        <time>2010-01-01T00:40:08Z</time>
      </trkpt>
      <trkpt lat="31.48233000" lon="34.63321000">
        <ele>142.00000</ele>
        <time>2010-01-01T00:40:12Z</time>
      </trkpt>
      <trkpt lat="31.48258000" lon="34.63329000">
        <ele>141.00000</ele>
        <time>2010-01-01T00:40:22Z</time>
      </trkpt>
      <trkpt lat="31.48266000" lon="34.63337000">
        <ele>141.00000</ele>
        <time>2010-01-01T00:40:27Z</time>
      </trkpt>
      <trkpt lat="31.48276000" lon="34.63354000">
        <ele>142.00000</ele>
        <time>2010-01-01T00:40:34Z</time>
      </trkpt>
      <trkpt lat="31.48285000" lon="34.63362000">
        <ele>142.00000</ele>
        <time>2010-01-01T00:40:38Z</time>
      </trkpt>
      <trkpt lat="31.48284000" lon="34.63362000">
        <ele>142.00000</ele>
        <time>2010-01-01T00:40:39Z</time>
      </trkpt>
      <trkpt lat="31.48292000" lon="34.63362000">
        <ele>142.00000</ele>
        <time>2010-01-01T00:40:42Z</time>
      </trkpt>
      <trkpt lat="31.48301000" lon="34.63355000">
        <ele>141.00000</ele>
        <time>2010-01-01T00:40:46Z</time>
      </trkpt>
      <trkpt lat="31.48303000" lon="34.63352000">
        <ele>141.00000</ele>
        <time>2010-01-01T00:40:47Z</time>
      </trkpt>
      <trkpt lat="31.48312000" lon="34.63333000">
        <ele>139.00000</ele>
        <time>2010-01-01T00:40:55Z</time>
      </trkpt>
      <trkpt lat="31.48318000" lon="34.63329000">
        <ele>139.00000</ele>
        <time>2010-01-01T00:40:58Z</time>
      </trkpt>
      <trkpt lat="31.48324000" lon="34.63330000">
        <ele>139.00000</ele>
        <time>2010-01-01T00:41:00Z</time>
      </trkpt>
      <trkpt lat="31.48327000" lon="34.63333000">
        <ele>139.00000</ele>
        <time>2010-01-01T00:41:02Z</time>
      </trkpt>
      <trkpt lat="31.48327000" lon="34.63337000">
        <ele>139.00000</ele>
        <time>2010-01-01T00:41:03Z</time>
      </trkpt>
      <trkpt lat="31.48325000" lon="34.63345000">
        <ele>139.00000</ele>
        <time>2010-01-01T00:41:06Z</time>
      </trkpt>
      <trkpt lat="31.48324000" lon="34.63358000">
        <ele>140.00000</ele>
        <time>2010-01-01T00:41:10Z</time>
      </trkpt>
      <trkpt lat="31.48327000" lon="34.63370000">
        <ele>140.00000</ele>
        <time>2010-01-01T00:41:15Z</time>
      </trkpt>
      <trkpt lat="31.48338000" lon="34.63387000">
        <ele>140.00000</ele>
        <time>2010-01-01T00:41:22Z</time>
      </trkpt>
      <trkpt lat="31.48344000" lon="34.63391000">
        <ele>140.00000</ele>
        <time>2010-01-01T00:41:25Z</time>
      </trkpt>
      <trkpt lat="31.48351000" lon="34.63390000">
        <ele>139.00000</ele>
        <time>2010-01-01T00:41:27Z</time>
      </trkpt>
      <trkpt lat="31.48358000" lon="34.63376000">
        <ele>138.00000</ele>
        <time>2010-01-01T00:41:33Z</time>
      </trkpt>
      <trkpt lat="31.48359000" lon="34.63367000">
        <ele>138.00000</ele>
        <time>2010-01-01T00:41:36Z</time>
      </trkpt>
      <trkpt lat="31.48356000" lon="34.63350000">
        <ele>137.00000</ele>
        <time>2010-01-01T00:41:42Z</time>
      </trkpt>
      <trkpt lat="31.48356000" lon="34.63342000">
        <ele>137.00000</ele>
        <time>2010-01-01T00:41:45Z</time>
      </trkpt>
      <trkpt lat="31.48362000" lon="34.63326000">
        <ele>136.00000</ele>
        <time>2010-01-01T00:41:51Z</time>
      </trkpt>
      <trkpt lat="31.48366000" lon="34.63321000">
        <ele>136.00000</ele>
        <time>2010-01-01T00:41:53Z</time>
      </trkpt>
      <trkpt lat="31.48366000" lon="34.63320000">
        <ele>136.00000</ele>
        <time>2010-01-01T00:41:53Z</time>
      </trkpt>
      <trkpt lat="31.48374000" lon="34.63311000">
        <ele>136.00000</ele>
        <time>2010-01-01T00:41:58Z</time>
      </trkpt>
      <trkpt lat="31.48385000" lon="34.63307000">
        <ele>136.00000</ele>
        <time>2010-01-01T00:42:02Z</time>
      </trkpt>
      <trkpt lat="31.48392000" lon="34.63309000">
        <ele>136.00000</ele>
        <time>2010-01-01T00:42:05Z</time>
      </trkpt>
      <trkpt lat="31.48398000" lon="34.63313000">
        <ele>136.00000</ele>
        <time>2010-01-01T00:42:08Z</time>
      </trkpt>
      <trkpt lat="31.48410000" lon="34.63340000">
        <ele>136.00000</ele>
        <time>2010-01-01T00:42:19Z</time>
      </trkpt>
      <trkpt lat="31.48415000" lon="34.63356000">
        <ele>136.00000</ele>
        <time>2010-01-01T00:42:24Z</time>
      </trkpt>
      <trkpt lat="31.48420000" lon="34.63361000">
        <ele>136.00000</ele>
        <time>2010-01-01T00:42:27Z</time>
      </trkpt>
      <trkpt lat="31.48430000" lon="34.63367000">
        <ele>135.00000</ele>
        <time>2010-01-01T00:42:31Z</time>
      </trkpt>
      <trkpt lat="31.48434000" lon="34.63374000">
        <ele>134.00000</ele>
        <time>2010-01-01T00:42:34Z</time>
      </trkpt>
      <trkpt lat="31.48436000" lon="34.63382000">
        <ele>134.00000</ele>
        <time>2010-01-01T00:42:37Z</time>
      </trkpt>
      <trkpt lat="31.48436000" lon="34.63422000">
        <ele>134.00000</ele>
        <time>2010-01-01T00:42:51Z</time>
      </trkpt>
      <trkpt lat="31.48448000" lon="34.63430000">
        <ele>133.00000</ele>
        <time>2010-01-01T00:42:56Z</time>
      </trkpt>
      <trkpt lat="31.48466000" lon="34.63426000">
        <ele>131.00000</ele>
        <time>2010-01-01T00:43:04Z</time>
      </trkpt>
      <trkpt lat="31.48483000" lon="34.63431000">
        <ele>128.00000</ele>
        <time>2010-01-01T00:43:11Z</time>
      </trkpt>
      <trkpt lat="31.48486000" lon="34.63429000">
        <ele>128.00000</ele>
        <time>2010-01-01T00:43:12Z</time>
      </trkpt>
      <trkpt lat="31.48487000" lon="34.63425000">
        <ele>128.00000</ele>
        <time>2010-01-01T00:43:14Z</time>
      </trkpt>
      <trkpt lat="31.48487000" lon="34.63421000">
        <ele>128.00000</ele>
        <time>2010-01-01T00:43:15Z</time>
      </trkpt>
      <trkpt lat="31.48483000" lon="34.63416000">
        <ele>128.00000</ele>
        <time>2010-01-01T00:43:17Z</time>
      </trkpt>
      <trkpt lat="31.48483000" lon="34.63415000">
        <ele>128.00000</ele>
        <time>2010-01-01T00:43:18Z</time>
      </trkpt>
      <trkpt lat="31.48462000" lon="34.63408000">
        <ele>130.00000</ele>
        <time>2010-01-01T00:43:26Z</time>
      </trkpt>
      <trkpt lat="31.48456000" lon="34.63404000">
        <ele>131.00000</ele>
        <time>2010-01-01T00:43:29Z</time>
      </trkpt>
      <trkpt lat="31.48452000" lon="34.63397000">
        <ele>132.00000</ele>
        <time>2010-01-01T00:43:32Z</time>
      </trkpt>
      <trkpt lat="31.48445000" lon="34.63360000">
        <ele>132.00000</ele>
        <time>2010-01-01T00:43:45Z</time>
      </trkpt>
      <trkpt lat="31.48445000" lon="34.63356000">
        <ele>132.00000</ele>
        <time>2010-01-01T00:43:46Z</time>
      </trkpt>
      <trkpt lat="31.48447000" lon="34.63348000">
        <ele>132.00000</ele>
        <time>2010-01-01T00:43:49Z</time>
      </trkpt>
      <trkpt lat="31.48460000" lon="34.63340000">
        <ele>131.00000</ele>
        <time>2010-01-01T00:43:55Z</time>
      </trkpt>
      <trkpt lat="31.48478000" lon="34.63344000">
        <ele>129.00000</ele>
        <time>2010-01-01T00:44:02Z</time>
      </trkpt>
      <trkpt lat="31.48492000" lon="34.63342000">
        <ele>129.00000</ele>
        <time>2010-01-01T00:44:08Z</time>
      </trkpt>
      <trkpt lat="31.48506000" lon="34.63344000">
        <ele>128.00000</ele>
        <time>2010-01-01T00:44:14Z</time>
      </trkpt>
      <trkpt lat="31.48513000" lon="34.63343000">
        <ele>128.00000</ele>
        <time>2010-01-01T00:44:16Z</time>
      </trkpt>
      <trkpt lat="31.48514000" lon="34.63339000">
        <ele>129.00000</ele>
        <time>2010-01-01T00:44:18Z</time>
      </trkpt>
      <trkpt lat="31.48508000" lon="34.63329000">
        <ele>129.00000</ele>
        <time>2010-01-01T00:44:22Z</time>
      </trkpt>
      <trkpt lat="31.48502000" lon="34.63325000">
        <ele>130.00000</ele>
        <time>2010-01-01T00:44:25Z</time>
      </trkpt>
      <trkpt lat="31.48474000" lon="34.63314000">
        <ele>130.00000</ele>
        <time>2010-01-01T00:44:37Z</time>
      </trkpt>
      <trkpt lat="31.48458000" lon="34.63305000">
        <ele>132.00000</ele>
        <time>2010-01-01T00:44:44Z</time>
      </trkpt>
      <trkpt lat="31.48455000" lon="34.63298000">
        <ele>132.00000</ele>
        <time>2010-01-01T00:44:46Z</time>
      </trkpt>
      <trkpt lat="31.48456000" lon="34.63294000">
        <ele>132.00000</ele>
        <time>2010-01-01T00:44:48Z</time>
      </trkpt>
      <trkpt lat="31.48458000" lon="34.63292000">
        <ele>132.00000</ele>
        <time>2010-01-01T00:44:49Z</time>
      </trkpt>
      <trkpt lat="31.48461000" lon="34.63290000">
        <ele>132.00000</ele>
        <time>2010-01-01T00:44:50Z</time>
      </trkpt>
      <trkpt lat="31.48472000" lon="34.63292000">
        <ele>131.00000</ele>
        <time>2010-01-01T00:44:55Z</time>
      </trkpt>
      <trkpt lat="31.48479000" lon="34.63289000">
        <ele>131.00000</ele>
        <time>2010-01-01T00:44:58Z</time>
      </trkpt>
      <trkpt lat="31.48501000" lon="34.63269000">
        <ele>129.00000</ele>
        <time>2010-01-01T00:45:09Z</time>
      </trkpt>
      <trkpt lat="31.48508000" lon="34.63265000">
        <ele>128.00000</ele>
        <time>2010-01-01T00:45:12Z</time>
      </trkpt>
      <trkpt lat="31.48518000" lon="34.63265000">
        <ele>127.00000</ele>
        <time>2010-01-01T00:45:16Z</time>
      </trkpt>
      <trkpt lat="31.48537000" lon="34.63277000">
        <ele>126.00000</ele>
        <time>2010-01-01T00:45:25Z</time>
      </trkpt>
      <trkpt lat="31.48544000" lon="34.63277000">
        <ele>126.00000</ele>
        <time>2010-01-01T00:45:27Z</time>
      </trkpt>
      <trkpt lat="31.48545000" lon="34.63273000">
        <ele>126.00000</ele>
        <time>2010-01-01T00:45:29Z</time>
      </trkpt>
      <trkpt lat="31.48543000" lon="34.63265000">
        <ele>125.00000</ele>
        <time>2010-01-01T00:45:32Z</time>
      </trkpt>
      <trkpt lat="31.48536000" lon="34.63255000">
        <ele>125.00000</ele>
        <time>2010-01-01T00:45:36Z</time>
      </trkpt>
      <trkpt lat="31.48530000" lon="34.63250000">
        <ele>124.00000</ele>
        <time>2010-01-01T00:45:39Z</time>
      </trkpt>
      <trkpt lat="31.48513000" lon="34.63244000">
        <ele>127.00000</ele>
        <time>2010-01-01T00:45:46Z</time>
      </trkpt>
      <trkpt lat="31.48505000" lon="34.63236000">
        <ele>128.00000</ele>
        <time>2010-01-01T00:45:50Z</time>
      </trkpt>
      <trkpt lat="31.48505000" lon="34.63227000">
        <ele>128.00000</ele>
        <time>2010-01-01T00:45:53Z</time>
      </trkpt>
      <trkpt lat="31.48510000" lon="34.63212000">
        <ele>127.00000</ele>
        <time>2010-01-01T00:45:59Z</time>
      </trkpt>
      <trkpt lat="31.48512000" lon="34.63195000">
        <ele>127.00000</ele>
        <time>2010-01-01T00:46:05Z</time>
      </trkpt>
      <trkpt lat="31.48510000" lon="34.63187000">
        <ele>126.00000</ele>
        <time>2010-01-01T00:46:08Z</time>
      </trkpt>
      <trkpt lat="31.48508000" lon="34.63184000">
        <ele>126.00000</ele>
        <time>2010-01-01T00:46:09Z</time>
      </trkpt>
      <trkpt lat="31.48501000" lon="34.63181000">
        <ele>126.00000</ele>
        <time>2010-01-01T00:46:12Z</time>
      </trkpt>
      <trkpt lat="31.48487000" lon="34.63181000">
        <ele>127.00000</ele>
        <time>2010-01-01T00:46:17Z</time>
      </trkpt>
      <trkpt lat="31.48480000" lon="34.63184000">
        <ele>127.00000</ele>
        <time>2010-01-01T00:46:20Z</time>
      </trkpt>
      <trkpt lat="31.48478000" lon="34.63190000">
        <ele>128.00000</ele>
        <time>2010-01-01T00:46:23Z</time>
      </trkpt>
      <trkpt lat="31.48478000" lon="34.63204000">
        <ele>129.00000</ele>
        <time>2010-01-01T00:46:27Z</time>
      </trkpt>
      <trkpt lat="31.48477000" lon="34.63212000">
        <ele>129.00000</ele>
        <time>2010-01-01T00:46:30Z</time>
      </trkpt>
      <trkpt lat="31.48470000" lon="34.63222000">
        <ele>130.00000</ele>
        <time>2010-01-01T00:46:35Z</time>
      </trkpt>
      <trkpt lat="31.48457000" lon="34.63228000">
        <ele>130.00000</ele>
        <time>2010-01-01T00:46:40Z</time>
      </trkpt>
      <trkpt lat="31.48431000" lon="34.63245000">
        <ele>132.00000</ele>
        <time>2010-01-01T00:46:52Z</time>
      </trkpt>
      <trkpt lat="31.48414000" lon="34.63248000">
        <ele>132.00000</ele>
        <time>2010-01-01T00:46:59Z</time>
      </trkpt>
      <trkpt lat="31.48403000" lon="34.63251000">
        <ele>132.00000</ele>
        <time>2010-01-01T00:47:04Z</time>
      </trkpt>
      <trkpt lat="31.48389000" lon="34.63252000">
        <ele>132.00000</ele>
        <time>2010-01-01T00:47:09Z</time>
      </trkpt>
      <trkpt lat="31.48354000" lon="34.63242000">
        <ele>132.00000</ele>
        <time>2010-01-01T00:47:24Z</time>
      </trkpt>
      <trkpt lat="31.48341000" lon="34.63228000">
        <ele>133.00000</ele>
        <time>2010-01-01T00:47:31Z</time>
      </trkpt>
      <trkpt lat="31.48339000" lon="34.63220000">
        <ele>133.00000</ele>
        <time>2010-01-01T00:47:33Z</time>
      </trkpt>
      <trkpt lat="31.48340000" lon="34.63207000">
        <ele>133.00000</ele>
        <time>2010-01-01T00:47:38Z</time>
      </trkpt>
      <trkpt lat="31.48346000" lon="34.63178000">
        <ele>133.00000</ele>
        <time>2010-01-01T00:47:48Z</time>
      </trkpt>
      <trkpt lat="31.48364000" lon="34.63138000">
        <ele>132.00000</ele>
        <time>2010-01-01T00:48:04Z</time>
      </trkpt>
      <trkpt lat="31.48368000" lon="34.63113000">
        <ele>132.00000</ele>
        <time>2010-01-01T00:48:12Z</time>
      </trkpt>
      <trkpt lat="31.48364000" lon="34.63101000">
        <ele>132.00000</ele>
        <time>2010-01-01T00:48:17Z</time>
      </trkpt>
      <trkpt lat="31.48347000" lon="34.63080000">
        <ele>132.00000</ele>
        <time>2010-01-01T00:48:27Z</time>
      </trkpt>
      <trkpt lat="31.48344000" lon="34.63078000">
        <ele>133.00000</ele>
        <time>2010-01-01T00:48:28Z</time>
      </trkpt>
      <trkpt lat="31.48337000" lon="34.63076000">
        <ele>133.00000</ele>
        <time>2010-01-01T00:48:31Z</time>
      </trkpt>
      <trkpt lat="31.48313000" lon="34.63085000">
        <ele>135.00000</ele>
        <time>2010-01-01T00:48:41Z</time>
      </trkpt>
      <trkpt lat="31.48296000" lon="34.63093000">
        <ele>136.00000</ele>
        <time>2010-01-01T00:48:48Z</time>
      </trkpt>
      <trkpt lat="31.48296000" lon="34.63092000">
        <ele>136.00000</ele>
        <time>2010-01-01T00:48:49Z</time>
      </trkpt>
      <trkpt lat="31.48296000" lon="34.63093000">
        <ele>136.00000</ele>
        <time>2010-01-01T00:48:49Z</time>
      </trkpt>
      <trkpt lat="31.48279000" lon="34.63095000">
        <ele>137.00000</ele>
        <time>2010-01-01T00:48:56Z</time>
      </trkpt>
      <trkpt lat="31.48273000" lon="34.63100000">
        <ele>137.00000</ele>
        <time>2010-01-01T00:48:59Z</time>
      </trkpt>
      <trkpt lat="31.48270000" lon="34.63112000">
        <ele>136.00000</ele>
        <time>2010-01-01T00:49:03Z</time>
      </trkpt>
      <trkpt lat="31.48275000" lon="34.63128000">
        <ele>136.00000</ele>
        <time>2010-01-01T00:49:09Z</time>
      </trkpt>
      <trkpt lat="31.48275000" lon="34.63136000">
        <ele>136.00000</ele>
        <time>2010-01-01T00:49:11Z</time>
      </trkpt>
      <trkpt lat="31.48264000" lon="34.63172000">
        <ele>137.00000</ele>
        <time>2010-01-01T00:49:25Z</time>
      </trkpt>
      <trkpt lat="31.48253000" lon="34.63193000">
        <ele>137.00000</ele>
        <time>2010-01-01T00:49:33Z</time>
      </trkpt>
      <trkpt lat="31.48232000" lon="34.63209000">
        <ele>137.00000</ele>
        <time>2010-01-01T00:49:43Z</time>
      </trkpt>
      <trkpt lat="31.48215000" lon="34.63225000">
        <ele>138.00000</ele>
        <time>2010-01-01T00:49:52Z</time>
      </trkpt>
      <trkpt lat="31.48214000" lon="34.63225000">
        <ele>138.00000</ele>
        <time>2010-01-01T00:49:52Z</time>
      </trkpt>
      <trkpt lat="31.48209000" lon="34.63222000">
        <ele>138.00000</ele>
        <time>2010-01-01T00:49:54Z</time>
      </trkpt>
      <trkpt lat="31.48204000" lon="34.63211000">
        <ele>138.00000</ele>
        <time>2010-01-01T00:49:59Z</time>
      </trkpt>
      <trkpt lat="31.48205000" lon="34.63199000">
        <ele>138.00000</ele>
        <time>2010-01-01T00:50:03Z</time>
      </trkpt>
      <trkpt lat="31.48212000" lon="34.63179000">
        <ele>138.00000</ele>
        <time>2010-01-01T00:50:10Z</time>
      </trkpt>
      <trkpt lat="31.48209000" lon="34.63167000">
        <ele>138.00000</ele>
        <time>2010-01-01T00:50:14Z</time>
      </trkpt>
      <trkpt lat="31.48201000" lon="34.63159000">
        <ele>139.00000</ele>
        <time>2010-01-01T00:50:19Z</time>
      </trkpt>
      <trkpt lat="31.48180000" lon="34.63156000">
        <ele>143.00000</ele>
        <time>2010-01-01T00:50:27Z</time>
      </trkpt>
      <trkpt lat="31.48176000" lon="34.63150000">
        <ele>144.00000</ele>
        <time>2010-01-01T00:50:30Z</time>
      </trkpt>
      <trkpt lat="31.48179000" lon="34.63142000">
        <ele>144.00000</ele>
        <time>2010-01-01T00:50:33Z</time>
      </trkpt>
      <trkpt lat="31.48191000" lon="34.63132000">
        <ele>142.00000</ele>
        <time>2010-01-01T00:50:39Z</time>
      </trkpt>
      <trkpt lat="31.48193000" lon="34.63128000">
        <ele>142.00000</ele>
        <time>2010-01-01T00:50:40Z</time>
      </trkpt>
      <trkpt lat="31.48195000" lon="34.63120000">
        <ele>141.00000</ele>
        <time>2010-01-01T00:50:43Z</time>
      </trkpt>
      <trkpt lat="31.48195000" lon="34.63104000">
        <ele>142.00000</ele>
        <time>2010-01-01T00:50:48Z</time>
      </trkpt>
      <trkpt lat="31.48197000" lon="34.63095000">
        <ele>142.00000</ele>
        <time>2010-01-01T00:50:52Z</time>
      </trkpt>
      <trkpt lat="31.48198000" lon="34.63092000">
        <ele>142.00000</ele>
        <time>2010-01-01T00:50:53Z</time>
      </trkpt>
      <trkpt lat="31.48211000" lon="34.63078000">
        <ele>142.00000</ele>
        <time>2010-01-01T00:51:00Z</time>
      </trkpt>
      <trkpt lat="31.48215000" lon="34.63070000">
        <ele>142.00000</ele>
        <time>2010-01-01T00:51:03Z</time>
      </trkpt>
      <trkpt lat="31.48219000" lon="34.63046000">
        <ele>141.00000</ele>
        <time>2010-01-01T00:51:11Z</time>
      </trkpt>
      <trkpt lat="31.48227000" lon="34.63036000">
        <ele>140.00000</ele>
        <time>2010-01-01T00:51:16Z</time>
      </trkpt>
      <trkpt lat="31.48246000" lon="34.63026000">
        <ele>139.00000</ele>
        <time>2010-01-01T00:51:24Z</time>
      </trkpt>
      <trkpt lat="31.48268000" lon="34.63027000">
        <ele>137.00000</ele>
        <time>2010-01-01T00:51:33Z</time>
      </trkpt>
      <trkpt lat="31.48281000" lon="34.63024000">
        <ele>136.00000</ele>
        <time>2010-01-01T00:51:38Z</time>
      </trkpt>
      <trkpt lat="31.48303000" lon="34.63022000">
        <ele>134.00000</ele>
        <time>2010-01-01T00:51:47Z</time>
      </trkpt>
      <trkpt lat="31.48326000" lon="34.63032000">
        <ele>132.00000</ele>
        <time>2010-01-01T00:51:57Z</time>
      </trkpt>
      <trkpt lat="31.48347000" lon="34.63039000">
        <ele>132.00000</ele>
        <time>2010-01-01T00:52:06Z</time>
      </trkpt>
      <trkpt lat="31.48360000" lon="34.63047000">
        <ele>131.00000</ele>
        <time>2010-01-01T00:52:12Z</time>
      </trkpt>
      <trkpt lat="31.48388000" lon="34.63056000">
        <ele>130.00000</ele>
        <time>2010-01-01T00:52:23Z</time>
      </trkpt>
      <trkpt lat="31.48407000" lon="34.63066000">
        <ele>129.00000</ele>
        <time>2010-01-01T00:52:32Z</time>
      </trkpt>
      <trkpt lat="31.48418000" lon="34.63069000">
        <ele>129.00000</ele>
        <time>2010-01-01T00:52:36Z</time>
      </trkpt>
      <trkpt lat="31.48443000" lon="34.63066000">
        <ele>127.00000</ele>
        <time>2010-01-01T00:52:46Z</time>
      </trkpt>
      <trkpt lat="31.48474000" lon="34.63059000">
        <ele>125.00000</ele>
        <time>2010-01-01T00:52:59Z</time>
      </trkpt>
      <trkpt lat="31.48484000" lon="34.63042000">
        <ele>125.00000</ele>
        <time>2010-01-01T00:53:06Z</time>
      </trkpt>
      <trkpt lat="31.48486000" lon="34.63033000">
        <ele>125.00000</ele>
        <time>2010-01-01T00:53:09Z</time>
      </trkpt>
      <trkpt lat="31.48485000" lon="34.63025000">
        <ele>126.00000</ele>
        <time>2010-01-01T00:53:12Z</time>
      </trkpt>
      <trkpt lat="31.48480000" lon="34.63014000">
        <ele>126.00000</ele>
        <time>2010-01-01T00:53:16Z</time>
      </trkpt>
      <trkpt lat="31.48476000" lon="34.62989000">
        <ele>126.00000</ele>
        <time>2010-01-01T00:53:25Z</time>
      </trkpt>
      <trkpt lat="31.48470000" lon="34.62979000">
        <ele>127.00000</ele>
        <time>2010-01-01T00:53:29Z</time>
      </trkpt>
      <trkpt lat="31.48464000" lon="34.62963000">
        <ele>127.00000</ele>
        <time>2010-01-01T00:53:35Z</time>
      </trkpt>
      <trkpt lat="31.48454000" lon="34.62946000">
        <ele>128.00000</ele>
        <time>2010-01-01T00:53:42Z</time>
      </trkpt>
      <trkpt lat="31.48446000" lon="34.62938000">
        <ele>129.00000</ele>
        <time>2010-01-01T00:53:46Z</time>
      </trkpt>
      <trkpt lat="31.48431000" lon="34.62938000">
        <ele>130.00000</ele>
        <time>2010-01-01T00:53:52Z</time>
      </trkpt>
      <trkpt lat="31.48429000" lon="34.62936000">
        <ele>130.00000</ele>
        <time>2010-01-01T00:53:53Z</time>
      </trkpt>
      <trkpt lat="31.48429000" lon="34.62932000">
        <ele>131.00000</ele>
        <time>2010-01-01T00:53:55Z</time>
      </trkpt>
      <trkpt lat="31.48440000" lon="34.62921000">
        <ele>130.00000</ele>
        <time>2010-01-01T00:54:00Z</time>
      </trkpt>
      <trkpt lat="31.48443000" lon="34.62914000">
        <ele>131.00000</ele>
        <time>2010-01-01T00:54:03Z</time>
      </trkpt>
      <trkpt lat="31.48444000" lon="34.62897000">
        <ele>131.00000</ele>
        <time>2010-01-01T00:54:09Z</time>
      </trkpt>
      <trkpt lat="31.48441000" lon="34.62876000">
        <ele>131.00000</ele>
        <time>2010-01-01T00:54:16Z</time>
      </trkpt>
      <trkpt lat="31.48443000" lon="34.62873000">
        <ele>131.00000</ele>
        <time>2010-01-01T00:54:17Z</time>
      </trkpt>
      <trkpt lat="31.48450000" lon="34.62871000">
        <ele>131.00000</ele>
        <time>2010-01-01T00:54:20Z</time>
      </trkpt>
      <trkpt lat="31.48456000" lon="34.62874000">
        <ele>130.00000</ele>
        <time>2010-01-01T00:54:23Z</time>
      </trkpt>
      <trkpt lat="31.48455000" lon="34.62874000">
        <ele>130.00000</ele>
        <time>2010-01-01T00:54:23Z</time>
      </trkpt>
      <trkpt lat="31.48470000" lon="34.62898000">
        <ele>129.00000</ele>
        <time>2010-01-01T00:54:34Z</time>
      </trkpt>
      <trkpt lat="31.48482000" lon="34.62913000">
        <ele>128.00000</ele>
        <time>2010-01-01T00:54:41Z</time>
      </trkpt>
      <trkpt lat="31.48480000" lon="34.62926000">
        <ele>127.00000</ele>
        <time>2010-01-01T00:54:45Z</time>
      </trkpt>
      <trkpt lat="31.48481000" lon="34.62934000">
        <ele>127.00000</ele>
        <time>2010-01-01T00:54:48Z</time>
      </trkpt>
      <trkpt lat="31.48483000" lon="34.62937000">
        <ele>127.00000</ele>
        <time>2010-01-01T00:54:49Z</time>
      </trkpt>
      <trkpt lat="31.48486000" lon="34.62940000">
        <ele>127.00000</ele>
        <time>2010-01-01T00:54:51Z</time>
      </trkpt>
      <trkpt lat="31.48496000" lon="34.62941000">
        <ele>127.00000</ele>
        <time>2010-01-01T00:54:55Z</time>
      </trkpt>
      <trkpt lat="31.48498000" lon="34.62945000">
        <ele>126.00000</ele>
        <time>2010-01-01T00:54:56Z</time>
      </trkpt>
      <trkpt lat="31.48497000" lon="34.62966000">
        <ele>125.00000</ele>
        <time>2010-01-01T00:55:03Z</time>
      </trkpt>
      <trkpt lat="31.48498000" lon="34.62974000">
        <ele>125.00000</ele>
        <time>2010-01-01T00:55:06Z</time>
      </trkpt>
      <trkpt lat="31.48524000" lon="34.63025000">
        <ele>124.00000</ele>
        <time>2010-01-01T00:55:26Z</time>
      </trkpt>
      <trkpt lat="31.48531000" lon="34.63053000">
        <ele>123.00000</ele>
        <time>2010-01-01T00:55:36Z</time>
      </trkpt>
      <trkpt lat="31.48535000" lon="34.63086000">
        <ele>123.00000</ele>
        <time>2010-01-01T00:55:48Z</time>
      </trkpt>
      <trkpt lat="31.48542000" lon="34.63101000">
        <ele>122.00000</ele>
        <time>2010-01-01T00:55:54Z</time>
      </trkpt>
      <trkpt lat="31.48565000" lon="34.63128000">
        <ele>122.00000</ele>
        <time>2010-01-01T00:56:07Z</time>
      </trkpt>
      <trkpt lat="31.48572000" lon="34.63142000">
        <ele>122.00000</ele>
        <time>2010-01-01T00:56:12Z</time>
      </trkpt>
      <trkpt lat="31.48585000" lon="34.63177000">
        <ele>123.00000</ele>
        <time>2010-01-01T00:56:25Z</time>
      </trkpt>
      <trkpt lat="31.48589000" lon="34.63184000">
        <ele>123.00000</ele>
        <time>2010-01-01T00:56:28Z</time>
      </trkpt>
      <trkpt lat="31.48591000" lon="34.63187000">
        <ele>122.00000</ele>
        <time>2010-01-01T00:56:29Z</time>
      </trkpt>
      <trkpt lat="31.48602000" lon="34.63191000">
        <ele>122.00000</ele>
        <time>2010-01-01T00:56:34Z</time>
      </trkpt>
      <trkpt lat="31.48614000" lon="34.63207000">
        <ele>120.00000</ele>
        <time>2010-01-01T00:56:41Z</time>
      </trkpt>
      <trkpt lat="31.48617000" lon="34.63208000">
        <ele>120.00000</ele>
        <time>2010-01-01T00:56:43Z</time>
      </trkpt>
      <trkpt lat="31.48616000" lon="34.63208000">
        <ele>120.00000</ele>
        <time>2010-01-01T00:56:43Z</time>
      </trkpt>
      <trkpt lat="31.48624000" lon="34.63208000">
        <ele>120.00000</ele>
        <time>2010-01-01T00:56:46Z</time>
      </trkpt>
      <trkpt lat="31.48627000" lon="34.63205000">
        <ele>120.00000</ele>
        <time>2010-01-01T00:56:48Z</time>
      </trkpt>
      <trkpt lat="31.48628000" lon="34.63197000">
        <ele>121.00000</ele>
        <time>2010-01-01T00:56:51Z</time>
      </trkpt>
      <trkpt lat="31.48627000" lon="34.63189000">
        <ele>122.00000</ele>
        <time>2010-01-01T00:56:53Z</time>
      </trkpt>
      <trkpt lat="31.48608000" lon="34.63171000">
        <ele>124.00000</ele>
        <time>2010-01-01T00:57:03Z</time>
      </trkpt>
      <trkpt lat="31.48594000" lon="34.63151000">
        <ele>123.00000</ele>
        <time>2010-01-01T00:57:12Z</time>
      </trkpt>
      <trkpt lat="31.48592000" lon="34.63143000">
        <ele>123.00000</ele>
        <time>2010-01-01T00:57:15Z</time>
      </trkpt>
      <trkpt lat="31.48591000" lon="34.63127000">
        <ele>123.00000</ele>
        <time>2010-01-01T00:57:20Z</time>
      </trkpt>
      <trkpt lat="31.48588000" lon="34.63110000">
        <ele>124.00000</ele>
        <time>2010-01-01T00:57:26Z</time>
      </trkpt>
      <trkpt lat="31.48588000" lon="34.63102000">
        <ele>124.00000</ele>
        <time>2010-01-01T00:57:29Z</time>
      </trkpt>
      <trkpt lat="31.48590000" lon="34.63099000">
        <ele>125.00000</ele>
        <time>2010-01-01T00:57:30Z</time>
      </trkpt>
      <trkpt lat="31.48603000" lon="34.63091000">
        <ele>126.00000</ele>
        <time>2010-01-01T00:57:36Z</time>
      </trkpt>
      <trkpt lat="31.48605000" lon="34.63087000">
        <ele>126.00000</ele>
        <time>2010-01-01T00:57:38Z</time>
      </trkpt>
      <trkpt lat="31.48607000" lon="34.63084000">
        <ele>126.00000</ele>
        <time>2010-01-01T00:57:39Z</time>
      </trkpt>
      <trkpt lat="31.48605000" lon="34.63076000">
        <ele>127.00000</ele>
        <time>2010-01-01T00:57:42Z</time>
      </trkpt>
      <trkpt lat="31.48599000" lon="34.63072000">
        <ele>128.00000</ele>
        <time>2010-01-01T00:57:45Z</time>
      </trkpt>
      <trkpt lat="31.48572000" lon="34.63068000">
        <ele>126.00000</ele>
        <time>2010-01-01T00:57:55Z</time>
      </trkpt>
      <trkpt lat="31.48572000" lon="34.63067000">
        <ele>126.00000</ele>
        <time>2010-01-01T00:57:56Z</time>
      </trkpt>
      <trkpt lat="31.48567000" lon="34.63060000">
        <ele>126.00000</ele>
        <time>2010-01-01T00:57:59Z</time>
      </trkpt>
      <trkpt lat="31.48564000" lon="34.63027000">
        <ele>127.00000</ele>
        <time>2010-01-01T00:58:10Z</time>
      </trkpt>
      <trkpt lat="31.48566000" lon="34.63010000">
        <ele>129.00000</ele>
        <time>2010-01-01T00:58:16Z</time>
      </trkpt>
      <trkpt lat="31.48559000" lon="34.62995000">
        <ele>128.00000</ele>
        <time>2010-01-01T00:58:22Z</time>
      </trkpt>
      <trkpt lat="31.48558000" lon="34.62983000">
        <ele>128.00000</ele>
        <time>2010-01-01T00:58:26Z</time>
      </trkpt>
      <trkpt lat="31.48560000" lon="34.62975000">
        <ele>128.00000</ele>
        <time>2010-01-01T00:58:29Z</time>
      </trkpt>
      <trkpt lat="31.48570000" lon="34.62957000">
        <ele>129.00000</ele>
        <time>2010-01-01T00:58:36Z</time>
      </trkpt>
      <trkpt lat="31.48571000" lon="34.62949000">
        <ele>129.00000</ele>
        <time>2010-01-01T00:58:39Z</time>
      </trkpt>
      <trkpt lat="31.48570000" lon="34.62936000">
        <ele>130.00000</ele>
        <time>2010-01-01T00:58:43Z</time>
      </trkpt>
      <trkpt lat="31.48569000" lon="34.62936000">
        <ele>130.00000</ele>
        <time>2010-01-01T00:58:44Z</time>
      </trkpt>
      <trkpt lat="31.48556000" lon="34.62918000">
        <ele>130.00000</ele>
        <time>2010-01-01T00:58:52Z</time>
      </trkpt>
      <trkpt lat="31.48552000" lon="34.62917000">
        <ele>130.00000</ele>
        <time>2010-01-01T00:58:54Z</time>
      </trkpt>
      <trkpt lat="31.48542000" lon="34.62921000">
        <ele>130.00000</ele>
        <time>2010-01-01T00:58:58Z</time>
      </trkpt>
      <trkpt lat="31.48539000" lon="34.62920000">
        <ele>130.00000</ele>
        <time>2010-01-01T00:58:59Z</time>
      </trkpt>
      <trkpt lat="31.48536000" lon="34.62917000">
        <ele>130.00000</ele>
        <time>2010-01-01T00:59:01Z</time>
      </trkpt>
      <trkpt lat="31.48530000" lon="34.62893000">
        <ele>133.00000</ele>
        <time>2010-01-01T00:59:09Z</time>
      </trkpt>
      <trkpt lat="31.48522000" lon="34.62870000">
        <ele>134.00000</ele>
        <time>2010-01-01T00:59:18Z</time>
      </trkpt>
      <trkpt lat="31.48522000" lon="34.62862000">
        <ele>135.00000</ele>
        <time>2010-01-01T00:59:20Z</time>
      </trkpt>
      <trkpt lat="31.48525000" lon="34.62845000">
        <ele>136.00000</ele>
        <time>2010-01-01T00:59:26Z</time>
      </trkpt>
      <trkpt lat="31.48527000" lon="34.62837000">
        <ele>136.00000</ele>
        <time>2010-01-01T00:59:29Z</time>
      </trkpt>
      <trkpt lat="31.48532000" lon="34.62831000">
        <ele>137.00000</ele>
        <time>2010-01-01T00:59:32Z</time>
      </trkpt>
      <trkpt lat="31.48535000" lon="34.62829000">
        <ele>137.00000</ele>
        <time>2010-01-01T00:59:33Z</time>
      </trkpt>
      <trkpt lat="31.48542000" lon="34.62829000">
        <ele>137.00000</ele>
        <time>2010-01-01T00:59:36Z</time>
      </trkpt>
      <trkpt lat="31.48558000" lon="34.62839000">
        <ele>137.00000</ele>
        <time>2010-01-01T00:59:43Z</time>
      </trkpt>
      <trkpt lat="31.48561000" lon="34.62838000">
        <ele>137.00000</ele>
        <time>2010-01-01T00:59:45Z</time>
      </trkpt>
      <trkpt lat="31.48565000" lon="34.62831000">
        <ele>138.00000</ele>
        <time>2010-01-01T00:59:48Z</time>
      </trkpt>
      <trkpt lat="31.48565000" lon="34.62830000">
        <ele>138.00000</ele>
        <time>2010-01-01T00:59:48Z</time>
      </trkpt>
      <trkpt lat="31.48564000" lon="34.62819000">
        <ele>138.00000</ele>
        <time>2010-01-01T00:59:52Z</time>
      </trkpt>
      <trkpt lat="31.48559000" lon="34.62803000">
        <ele>139.00000</ele>
        <time>2010-01-01T00:59:57Z</time>
      </trkpt>
      <trkpt lat="31.48548000" lon="34.62792000">
        <ele>140.00000</ele>
        <time>2010-01-01T01:00:03Z</time>
      </trkpt>
      <trkpt lat="31.48544000" lon="34.62785000">
        <ele>140.00000</ele>
        <time>2010-01-01T01:00:06Z</time>
      </trkpt>
      <trkpt lat="31.48544000" lon="34.62781000">
        <ele>140.00000</ele>
        <time>2010-01-01T01:00:07Z</time>
      </trkpt>
      <trkpt lat="31.48546000" lon="34.62777000">
        <ele>141.00000</ele>
        <time>2010-01-01T01:00:09Z</time>
      </trkpt>
      <trkpt lat="31.48551000" lon="34.62773000">
        <ele>141.00000</ele>
        <time>2010-01-01T01:00:11Z</time>
      </trkpt>
      <trkpt lat="31.48562000" lon="34.62774000">
        <ele>141.00000</ele>
        <time>2010-01-01T01:00:16Z</time>
      </trkpt>
      <trkpt lat="31.48584000" lon="34.62795000">
        <ele>139.00000</ele>
        <time>2010-01-01T01:00:27Z</time>
      </trkpt>
      <trkpt lat="31.48594000" lon="34.62801000">
        <ele>139.00000</ele>
        <time>2010-01-01T01:00:32Z</time>
      </trkpt>
      <trkpt lat="31.48604000" lon="34.62804000">
        <ele>139.00000</ele>
        <time>2010-01-01T01:00:36Z</time>
      </trkpt>
      <trkpt lat="31.48618000" lon="34.62806000">
        <ele>139.00000</ele>
        <time>2010-01-01T01:00:42Z</time>
      </trkpt>
      <trkpt lat="31.48624000" lon="34.62811000">
        <ele>139.00000</ele>
        <time>2010-01-01T01:00:44Z</time>
      </trkpt>
      <trkpt lat="31.48630000" lon="34.62835000">
        <ele>137.00000</ele>
        <time>2010-01-01T01:00:53Z</time>
      </trkpt>
      <trkpt lat="31.48630000" lon="34.62841000">
        <ele>136.00000</ele>
        <time>2010-01-01T01:00:55Z</time>
      </trkpt>
      <trkpt lat="31.48630000" lon="34.62840000">
        <ele>137.00000</ele>
        <time>2010-01-01T01:00:55Z</time>
      </trkpt>
      <trkpt lat="31.48627000" lon="34.62851000">
        <ele>135.00000</ele>
        <time>2010-01-01T01:00:59Z</time>
      </trkpt>
      <trkpt lat="31.48615000" lon="34.62866000">
        <ele>134.00000</ele>
        <time>2010-01-01T01:01:06Z</time>
      </trkpt>
      <trkpt lat="31.48607000" lon="34.62880000">
        <ele>134.00000</ele>
        <time>2010-01-01T01:01:12Z</time>
      </trkpt>
      <trkpt lat="31.48602000" lon="34.62891000">
        <ele>133.00000</ele>
        <time>2010-01-01T01:01:16Z</time>
      </trkpt>
      <trkpt lat="31.48600000" lon="34.62904000">
        <ele>133.00000</ele>
        <time>2010-01-01T01:01:21Z</time>
      </trkpt>
      <trkpt lat="31.48600000" lon="34.62916000">
        <ele>132.00000</ele>
        <time>2010-01-01T01:01:25Z</time>
      </trkpt>
      <trkpt lat="31.48604000" lon="34.62928000">
        <ele>132.00000</ele>
        <time>2010-01-01T01:01:29Z</time>
      </trkpt>
      <trkpt lat="31.48608000" lon="34.62935000">
        <ele>132.00000</ele>
        <time>2010-01-01T01:01:32Z</time>
      </trkpt>
      <trkpt lat="31.48615000" lon="34.62938000">
        <ele>132.00000</ele>
        <time>2010-01-01T01:01:35Z</time>
      </trkpt>
      <trkpt lat="31.48622000" lon="34.62937000">
        <ele>132.00000</ele>
        <time>2010-01-01T01:01:38Z</time>
      </trkpt>
      <trkpt lat="31.48636000" lon="34.62932000">
        <ele>132.00000</ele>
        <time>2010-01-01T01:01:44Z</time>
      </trkpt>
      <trkpt lat="31.48661000" lon="34.62931000">
        <ele>132.00000</ele>
        <time>2010-01-01T01:01:54Z</time>
      </trkpt>
      <trkpt lat="31.48667000" lon="34.62927000">
        <ele>133.00000</ele>
        <time>2010-01-01T01:01:57Z</time>
      </trkpt>
      <trkpt lat="31.48681000" lon="34.62922000">
        <ele>133.00000</ele>
        <time>2010-01-01T01:02:03Z</time>
      </trkpt>
      <trkpt lat="31.48687000" lon="34.62912000">
        <ele>133.00000</ele>
        <time>2010-01-01T01:02:07Z</time>
      </trkpt>
      <trkpt lat="31.48690000" lon="34.62896000">
        <ele>133.00000</ele>
        <time>2010-01-01T01:02:12Z</time>
      </trkpt>
      <trkpt lat="31.48690000" lon="34.62887000">
        <ele>134.00000</ele>
        <time>2010-01-01T01:02:15Z</time>
      </trkpt>
      <trkpt lat="31.48687000" lon="34.62875000">
        <ele>134.00000</ele>
        <time>2010-01-01T01:02:20Z</time>
      </trkpt>
      <trkpt lat="31.48678000" lon="34.62857000">
        <ele>135.00000</ele>
        <time>2010-01-01T01:02:27Z</time>
      </trkpt>
      <trkpt lat="31.48677000" lon="34.62831000">
        <ele>138.00000</ele>
        <time>2010-01-01T01:02:36Z</time>
      </trkpt>
      <trkpt lat="31.48675000" lon="34.62823000">
        <ele>139.00000</ele>
        <time>2010-01-01T01:02:39Z</time>
      </trkpt>
      <trkpt lat="31.48666000" lon="34.62807000">
        <ele>139.00000</ele>
        <time>2010-01-01T01:02:45Z</time>
      </trkpt>
      <trkpt lat="31.48665000" lon="34.62807000">
        <ele>139.00000</ele>
        <time>2010-01-01T01:02:45Z</time>
      </trkpt>
      <trkpt lat="31.48663000" lon="34.62785000">
        <ele>140.00000</ele>
        <time>2010-01-01T01:02:53Z</time>
      </trkpt>
      <trkpt lat="31.48666000" lon="34.62778000">
        <ele>140.00000</ele>
        <time>2010-01-01T01:02:56Z</time>
      </trkpt>
      <trkpt lat="31.48673000" lon="34.62777000">
        <ele>139.00000</ele>
        <time>2010-01-01T01:02:59Z</time>
      </trkpt>
      <trkpt lat="31.48686000" lon="34.62798000">
        <ele>139.00000</ele>
        <time>2010-01-01T01:03:07Z</time>
      </trkpt>
      <trkpt lat="31.48692000" lon="34.62802000">
        <ele>138.00000</ele>
        <time>2010-01-01T01:03:10Z</time>
      </trkpt>
      <trkpt lat="31.48728000" lon="34.62803000">
        <ele>134.00000</ele>
        <time>2010-01-01T01:03:25Z</time>
      </trkpt>
      <trkpt lat="31.48738000" lon="34.62806000">
        <ele>133.00000</ele>
        <time>2010-01-01T01:03:29Z</time>
      </trkpt>
      <trkpt lat="31.48743000" lon="34.62812000">
        <ele>132.00000</ele>
        <time>2010-01-01T01:03:32Z</time>
      </trkpt>
      <trkpt lat="31.48755000" lon="34.62832000">
        <ele>130.00000</ele>
        <time>2010-01-01T01:03:40Z</time>
      </trkpt>
      <trkpt lat="31.48761000" lon="34.62838000">
        <ele>130.00000</ele>
        <time>2010-01-01T01:03:43Z</time>
      </trkpt>
      <trkpt lat="31.48767000" lon="34.62841000">
        <ele>129.00000</ele>
        <time>2010-01-01T01:03:46Z</time>
      </trkpt>
      <trkpt lat="31.48782000" lon="34.62844000">
        <ele>129.00000</ele>
        <time>2010-01-01T01:03:52Z</time>
      </trkpt>
      <trkpt lat="31.48788000" lon="34.62849000">
        <ele>129.00000</ele>
        <time>2010-01-01T01:03:55Z</time>
      </trkpt>
      <trkpt lat="31.48801000" lon="34.62879000">
        <ele>129.00000</ele>
        <time>2010-01-01T01:04:06Z</time>
      </trkpt>
      <trkpt lat="31.48814000" lon="34.62899000">
        <ele>129.00000</ele>
        <time>2010-01-01T01:04:15Z</time>
      </trkpt>
      <trkpt lat="31.48833000" lon="34.62939000">
        <ele>127.00000</ele>
        <time>2010-01-01T01:04:30Z</time>
      </trkpt>
      <trkpt lat="31.48848000" lon="34.62958000">
        <ele>127.00000</ele>
        <time>2010-01-01T01:04:39Z</time>
      </trkpt>
      <trkpt lat="31.48850000" lon="34.62965000">
        <ele>126.00000</ele>
        <time>2010-01-01T01:04:42Z</time>
      </trkpt>
      <trkpt lat="31.48849000" lon="34.62969000">
        <ele>126.00000</ele>
        <time>2010-01-01T01:04:43Z</time>
      </trkpt>
      <trkpt lat="31.48838000" lon="34.62986000">
        <ele>124.00000</ele>
        <time>2010-01-01T01:04:50Z</time>
      </trkpt>
      <trkpt lat="31.48832000" lon="34.63002000">
        <ele>123.00000</ele>
        <time>2010-01-01T01:04:56Z</time>
      </trkpt>
      <trkpt lat="31.48821000" lon="34.63013000">
        <ele>124.00000</ele>
        <time>2010-01-01T01:05:02Z</time>
      </trkpt>
      <trkpt lat="31.48815000" lon="34.63017000">
        <ele>125.00000</ele>
        <time>2010-01-01T01:05:05Z</time>
      </trkpt>
      <trkpt lat="31.48804000" lon="34.63018000">
        <ele>127.00000</ele>
        <time>2010-01-01T01:05:09Z</time>
      </trkpt>
      <trkpt lat="31.48797000" lon="34.63015000">
        <ele>129.00000</ele>
        <time>2010-01-01T01:05:12Z</time>
      </trkpt>
      <trkpt lat="31.48782000" lon="34.62997000">
        <ele>131.00000</ele>
        <time>2010-01-01T01:05:21Z</time>
      </trkpt>
      <trkpt lat="31.48774000" lon="34.62992000">
        <ele>131.00000</ele>
        <time>2010-01-01T01:05:25Z</time>
      </trkpt>
      <trkpt lat="31.48773000" lon="34.62992000">
        <ele>131.00000</ele>
        <time>2010-01-01T01:05:25Z</time>
      </trkpt>
      <trkpt lat="31.48771000" lon="34.62995000">
        <ele>131.00000</ele>
        <time>2010-01-01T01:05:26Z</time>
      </trkpt>
      <trkpt lat="31.48769000" lon="34.63004000">
        <ele>131.00000</ele>
        <time>2010-01-01T01:05:29Z</time>
      </trkpt>
      <trkpt lat="31.48768000" lon="34.63042000">
        <ele>130.00000</ele>
        <time>2010-01-01T01:05:42Z</time>
      </trkpt>
      <trkpt lat="31.48776000" lon="34.63060000">
        <ele>128.00000</ele>
        <time>2010-01-01T01:05:49Z</time>
      </trkpt>
      <trkpt lat="31.48782000" lon="34.63064000">
        <ele>127.00000</ele>
        <time>2010-01-01T01:05:52Z</time>
      </trkpt>
      <trkpt lat="31.48796000" lon="34.63059000">
        <ele>126.00000</ele>
        <time>2010-01-01T01:05:58Z</time>
      </trkpt>
      <trkpt lat="31.48817000" lon="34.63060000">
        <ele>121.00000</ele>
        <time>2010-01-01T01:06:06Z</time>
      </trkpt>
      <trkpt lat="31.48824000" lon="34.63058000">
        <ele>119.00000</ele>
        <time>2010-01-01T01:06:09Z</time>
      </trkpt>
      <trkpt lat="31.48843000" lon="34.63046000">
        <ele>116.00000</ele>
        <time>2010-01-01T01:06:18Z</time>
      </trkpt>
      <trkpt lat="31.48851000" lon="34.63037000">
        <ele>116.00000</ele>
        <time>2010-01-01T01:06:22Z</time>
      </trkpt>
      <trkpt lat="31.48857000" lon="34.63027000">
        <ele>117.00000</ele>
        <time>2010-01-01T01:06:27Z</time>
      </trkpt>
      <trkpt lat="31.48863000" lon="34.63022000">
        <ele>118.00000</ele>
        <time>2010-01-01T01:06:30Z</time>
      </trkpt>
      <trkpt lat="31.48884000" lon="34.63018000">
        <ele>120.00000</ele>
        <time>2010-01-01T01:06:38Z</time>
      </trkpt>
      <trkpt lat="31.48885000" lon="34.63014000">
        <ele>121.00000</ele>
        <time>2010-01-01T01:06:39Z</time>
      </trkpt>
      <trkpt lat="31.48884000" lon="34.63010000">
        <ele>121.00000</ele>
        <time>2010-01-01T01:06:41Z</time>
      </trkpt>
      <trkpt lat="31.48870000" lon="34.62997000">
        <ele>123.00000</ele>
        <time>2010-01-01T01:06:48Z</time>
      </trkpt>
      <trkpt lat="31.48863000" lon="34.62986000">
        <ele>124.00000</ele>
        <time>2010-01-01T01:06:53Z</time>
      </trkpt>
      <trkpt lat="31.48863000" lon="34.62985000">
        <ele>124.00000</ele>
        <time>2010-01-01T01:06:53Z</time>
      </trkpt>
      <trkpt lat="31.48867000" lon="34.62977000">
        <ele>125.00000</ele>
        <time>2010-01-01T01:06:56Z</time>
      </trkpt>
      <trkpt lat="31.48871000" lon="34.62977000">
        <ele>126.00000</ele>
        <time>2010-01-01T01:06:58Z</time>
      </trkpt>
      <trkpt lat="31.48897000" lon="34.62991000">
        <ele>125.00000</ele>
        <time>2010-01-01T01:07:09Z</time>
      </trkpt>
      <trkpt lat="31.48907000" lon="34.62995000">
        <ele>125.00000</ele>
        <time>2010-01-01T01:07:13Z</time>
      </trkpt>
      <trkpt lat="31.48917000" lon="34.62995000">
        <ele>125.00000</ele>
        <time>2010-01-01T01:07:17Z</time>
      </trkpt>
      <trkpt lat="31.48919000" lon="34.62991000">
        <ele>125.00000</ele>
        <time>2010-01-01T01:07:19Z</time>
      </trkpt>
      <trkpt lat="31.48917000" lon="34.62987000">
        <ele>125.00000</ele>
        <time>2010-01-01T01:07:21Z</time>
      </trkpt>
      <trkpt lat="31.48899000" lon="34.62968000">
        <ele>127.00000</ele>
        <time>2010-01-01T01:07:30Z</time>
      </trkpt>
      <trkpt lat="31.48893000" lon="34.62957000">
        <ele>129.00000</ele>
        <time>2010-01-01T01:07:35Z</time>
      </trkpt>
      <trkpt lat="31.48893000" lon="34.62936000">
        <ele>130.00000</ele>
        <time>2010-01-01T01:07:42Z</time>
      </trkpt>
      <trkpt lat="31.48885000" lon="34.62908000">
        <ele>131.00000</ele>
        <time>2010-01-01T01:07:52Z</time>
      </trkpt>
      <trkpt lat="31.48877000" lon="34.62894000">
        <ele>132.00000</ele>
        <time>2010-01-01T01:07:58Z</time>
      </trkpt>
      <trkpt lat="31.48874000" lon="34.62886000">
        <ele>132.00000</ele>
        <time>2010-01-01T01:08:01Z</time>
      </trkpt>
      <trkpt lat="31.48874000" lon="34.62882000">
        <ele>133.00000</ele>
        <time>2010-01-01T01:08:02Z</time>
      </trkpt>
      <trkpt lat="31.48876000" lon="34.62879000">
        <ele>133.00000</ele>
        <time>2010-01-01T01:08:03Z</time>
      </trkpt>
      <trkpt lat="31.48879000" lon="34.62878000">
        <ele>133.00000</ele>
        <time>2010-01-01T01:08:05Z</time>
      </trkpt>
      <trkpt lat="31.48886000" lon="34.62881000">
        <ele>133.00000</ele>
        <time>2010-01-01T01:08:08Z</time>
      </trkpt>
      <trkpt lat="31.48901000" lon="34.62905000">
        <ele>132.00000</ele>
        <time>2010-01-01T01:08:18Z</time>
      </trkpt>
      <trkpt lat="31.48915000" lon="34.62939000">
        <ele>130.00000</ele>
        <time>2010-01-01T01:08:31Z</time>
      </trkpt>
      <trkpt lat="31.48926000" lon="34.62960000">
        <ele>128.00000</ele>
        <time>2010-01-01T01:08:39Z</time>
      </trkpt>
      <trkpt lat="31.48926000" lon="34.62959000">
        <ele>128.00000</ele>
        <time>2010-01-01T01:08:39Z</time>
      </trkpt>
      <trkpt lat="31.48928000" lon="34.62964000">
        <ele>127.00000</ele>
        <time>2010-01-01T01:08:41Z</time>
      </trkpt>
      <trkpt lat="31.48936000" lon="34.62992000">
        <ele>126.00000</ele>
        <time>2010-01-01T01:08:51Z</time>
      </trkpt>
      <trkpt lat="31.48955000" lon="34.63017000">
        <ele>126.00000</ele>
        <time>2010-01-01T01:09:03Z</time>
      </trkpt>
      <trkpt lat="31.48961000" lon="34.63028000">
        <ele>125.00000</ele>
        <time>2010-01-01T01:09:07Z</time>
      </trkpt>
      <trkpt lat="31.48976000" lon="34.63066000">
        <ele>123.00000</ele>
        <time>2010-01-01T01:09:22Z</time>
      </trkpt>
      <trkpt lat="31.48976000" lon="34.63074000">
        <ele>122.00000</ele>
        <time>2010-01-01T01:09:24Z</time>
      </trkpt>
      <trkpt lat="31.48973000" lon="34.63087000">
        <ele>122.00000</ele>
        <time>2010-01-01T01:09:29Z</time>
      </trkpt>
      <trkpt lat="31.48973000" lon="34.63112000">
        <ele>122.00000</ele>
        <time>2010-01-01T01:09:37Z</time>
      </trkpt>
      <trkpt lat="31.48967000" lon="34.63132000">
        <ele>123.00000</ele>
        <time>2010-01-01T01:09:45Z</time>
      </trkpt>
      <trkpt lat="31.48967000" lon="34.63162000">
        <ele>123.00000</ele>
        <time>2010-01-01T01:09:55Z</time>
      </trkpt>
      <trkpt lat="31.48966000" lon="34.63174000">
        <ele>123.00000</ele>
        <time>2010-01-01T01:09:59Z</time>
      </trkpt>
      <trkpt lat="31.48960000" lon="34.63189000">
        <ele>121.00000</ele>
        <time>2010-01-01T01:10:05Z</time>
      </trkpt>
      <trkpt lat="31.48959000" lon="34.63189000">
        <ele>121.00000</ele>
        <time>2010-01-01T01:10:05Z</time>
      </trkpt>
      <trkpt lat="31.48960000" lon="34.63189000">
        <ele>121.00000</ele>
        <time>2010-01-01T01:10:06Z</time>
      </trkpt>
      <trkpt lat="31.48946000" lon="34.63214000">
        <ele>118.00000</ele>
        <time>2010-01-01T01:10:16Z</time>
      </trkpt>
      <trkpt lat="31.48944000" lon="34.63238000">
        <ele>117.00000</ele>
        <time>2010-01-01T01:10:24Z</time>
      </trkpt>
      <trkpt lat="31.48941000" lon="34.63248000">
        <ele>117.00000</ele>
        <time>2010-01-01T01:10:28Z</time>
      </trkpt>
      <trkpt lat="31.48938000" lon="34.63252000">
        <ele>117.00000</ele>
        <time>2010-01-01T01:10:29Z</time>
      </trkpt>
      <trkpt lat="31.48932000" lon="34.63254000">
        <ele>117.00000</ele>
        <time>2010-01-01T01:10:32Z</time>
      </trkpt>
      <trkpt lat="31.48923000" lon="34.63250000">
        <ele>117.00000</ele>
        <time>2010-01-01T01:10:36Z</time>
      </trkpt>
      <trkpt lat="31.48917000" lon="34.63243000">
        <ele>117.00000</ele>
        <time>2010-01-01T01:10:39Z</time>
      </trkpt>
      <trkpt lat="31.48912000" lon="34.63228000">
        <ele>117.00000</ele>
        <time>2010-01-01T01:10:45Z</time>
      </trkpt>
      <trkpt lat="31.48912000" lon="34.63212000">
        <ele>118.00000</ele>
        <time>2010-01-01T01:10:50Z</time>
      </trkpt>
      <trkpt lat="31.48907000" lon="34.63200000">
        <ele>118.00000</ele>
        <time>2010-01-01T01:10:55Z</time>
      </trkpt>
      <trkpt lat="31.48897000" lon="34.63192000">
        <ele>118.00000</ele>
        <time>2010-01-01T01:11:00Z</time>
      </trkpt>
      <trkpt lat="31.48890000" lon="34.63193000">
        <ele>118.00000</ele>
        <time>2010-01-01T01:11:02Z</time>
      </trkpt>
      <trkpt lat="31.48887000" lon="34.63200000">
        <ele>117.00000</ele>
        <time>2010-01-01T01:11:05Z</time>
      </trkpt>
      <trkpt lat="31.48888000" lon="34.63216000">
        <ele>116.00000</ele>
        <time>2010-01-01T01:11:10Z</time>
      </trkpt>
      <trkpt lat="31.48880000" lon="34.63238000">
        <ele>115.00000</ele>
        <time>2010-01-01T01:11:19Z</time>
      </trkpt>
      <trkpt lat="31.48879000" lon="34.63249000">
        <ele>115.00000</ele>
        <time>2010-01-01T01:11:22Z</time>
      </trkpt>
      <trkpt lat="31.48883000" lon="34.63258000">
        <ele>115.00000</ele>
        <time>2010-01-01T01:11:26Z</time>
      </trkpt>
      <trkpt lat="31.48891000" lon="34.63263000">
        <ele>115.00000</ele>
        <time>2010-01-01T01:11:30Z</time>
      </trkpt>
      <trkpt lat="31.48894000" lon="34.63270000">
        <ele>115.00000</ele>
        <time>2010-01-01T01:11:32Z</time>
      </trkpt>
      <trkpt lat="31.48894000" lon="34.63269000">
        <ele>115.00000</ele>
        <time>2010-01-01T01:11:33Z</time>
      </trkpt>
      <trkpt lat="31.48895000" lon="34.63271000">
        <ele>115.00000</ele>
        <time>2010-01-01T01:11:33Z</time>
      </trkpt>
      <trkpt lat="31.48894000" lon="34.63278000">
        <ele>116.00000</ele>
        <time>2010-01-01T01:11:36Z</time>
      </trkpt>
      <trkpt lat="31.48889000" lon="34.63286000">
        <ele>116.00000</ele>
        <time>2010-01-01T01:11:39Z</time>
      </trkpt>
      <trkpt lat="31.48883000" lon="34.63291000">
        <ele>116.00000</ele>
        <time>2010-01-01T01:11:42Z</time>
      </trkpt>
      <trkpt lat="31.48856000" lon="34.63302000">
        <ele>116.00000</ele>
        <time>2010-01-01T01:11:54Z</time>
      </trkpt>
      <trkpt lat="31.48841000" lon="34.63314000">
        <ele>116.00000</ele>
        <time>2010-01-01T01:12:01Z</time>
      </trkpt>
      <trkpt lat="31.48804000" lon="34.63320000">
        <ele>115.00000</ele>
        <time>2010-01-01T01:12:16Z</time>
      </trkpt>
      <trkpt lat="31.48794000" lon="34.63318000">
        <ele>115.00000</ele>
        <time>2010-01-01T01:12:20Z</time>
      </trkpt>
      <trkpt lat="31.48716000" lon="34.63297000">
        <ele>117.00000</ele>
        <time>2010-01-01T01:12:52Z</time>
      </trkpt>
      <trkpt lat="31.48706000" lon="34.63296000">
        <ele>117.00000</ele>
        <time>2010-01-01T01:12:56Z</time>
      </trkpt>
      <trkpt lat="31.48698000" lon="34.63294000">
        <ele>118.00000</ele>
        <time>2010-01-01T01:12:59Z</time>
      </trkpt>
      <trkpt lat="31.48693000" lon="34.63290000">
        <ele>118.00000</ele>
        <time>2010-01-01T01:13:02Z</time>
      </trkpt>
      <trkpt lat="31.48679000" lon="34.63265000">
        <ele>118.00000</ele>
        <time>2010-01-01T01:13:12Z</time>
      </trkpt>
      <trkpt lat="31.48673000" lon="34.63261000">
        <ele>118.00000</ele>
        <time>2010-01-01T01:13:15Z</time>
      </trkpt>
      <trkpt lat="31.48667000" lon="34.63266000">
        <ele>118.00000</ele>
        <time>2010-01-01T01:13:17Z</time>
      </trkpt>
      <trkpt lat="31.48664000" lon="34.63275000">
        <ele>118.00000</ele>
        <time>2010-01-01T01:13:21Z</time>
      </trkpt>
      <trkpt lat="31.48665000" lon="34.63286000">
        <ele>118.00000</ele>
        <time>2010-01-01T01:13:25Z</time>
      </trkpt>
      <trkpt lat="31.48670000" lon="34.63315000">
        <ele>120.00000</ele>
        <time>2010-01-01T01:13:35Z</time>
      </trkpt>
      <trkpt lat="31.48675000" lon="34.63331000">
        <ele>120.00000</ele>
        <time>2010-01-01T01:13:40Z</time>
      </trkpt>
      <trkpt lat="31.48675000" lon="34.63330000">
        <ele>120.00000</ele>
        <time>2010-01-01T01:13:41Z</time>
      </trkpt>
      <trkpt lat="31.48679000" lon="34.63359000">
        <ele>119.00000</ele>
        <time>2010-01-01T01:13:51Z</time>
      </trkpt>
      <trkpt lat="31.48683000" lon="34.63369000">
        <ele>118.00000</ele>
        <time>2010-01-01T01:13:55Z</time>
      </trkpt>
      <trkpt lat="31.48690000" lon="34.63381000">
        <ele>118.00000</ele>
        <time>2010-01-01T01:14:00Z</time>
      </trkpt>
      <trkpt lat="31.48696000" lon="34.63385000">
        <ele>118.00000</ele>
        <time>2010-01-01T01:14:02Z</time>
      </trkpt>
      <trkpt lat="31.48702000" lon="34.63386000">
        <ele>118.00000</ele>
        <time>2010-01-01T01:14:05Z</time>
      </trkpt>
      <trkpt lat="31.48722000" lon="34.63379000">
        <ele>118.00000</ele>
        <time>2010-01-01T01:14:13Z</time>
      </trkpt>
      <trkpt lat="31.48737000" lon="34.63376000">
        <ele>118.00000</ele>
        <time>2010-01-01T01:14:19Z</time>
      </trkpt>
      <trkpt lat="31.48759000" lon="34.63379000">
        <ele>118.00000</ele>
        <time>2010-01-01T01:14:28Z</time>
      </trkpt>
      <trkpt lat="31.48782000" lon="34.63370000">
        <ele>117.00000</ele>
        <time>2010-01-01T01:14:38Z</time>
      </trkpt>
      <trkpt lat="31.48807000" lon="34.63363000">
        <ele>117.00000</ele>
        <time>2010-01-01T01:14:48Z</time>
      </trkpt>
      <trkpt lat="31.48824000" lon="34.63362000">
        <ele>118.00000</ele>
        <time>2010-01-01T01:14:55Z</time>
      </trkpt>
      <trkpt lat="31.48844000" lon="34.63360000">
        <ele>119.00000</ele>
        <time>2010-01-01T01:15:03Z</time>
      </trkpt>
      <trkpt lat="31.48874000" lon="34.63350000">
        <ele>119.00000</ele>
        <time>2010-01-01T01:15:15Z</time>
      </trkpt>
      <trkpt lat="31.48884000" lon="34.63345000">
        <ele>118.00000</ele>
        <time>2010-01-01T01:15:20Z</time>
      </trkpt>
      <trkpt lat="31.48902000" lon="34.63332000">
        <ele>117.00000</ele>
        <time>2010-01-01T01:15:28Z</time>
      </trkpt>
      <trkpt lat="31.48913000" lon="34.63329000">
        <ele>116.00000</ele>
        <time>2010-01-01T01:15:33Z</time>
      </trkpt>
      <trkpt lat="31.48926000" lon="34.63330000">
        <ele>115.00000</ele>
        <time>2010-01-01T01:15:38Z</time>
      </trkpt>
      <trkpt lat="31.48952000" lon="34.63337000">
        <ele>114.00000</ele>
        <time>2010-01-01T01:15:49Z</time>
      </trkpt>
      <trkpt lat="31.48966000" lon="34.63336000">
        <ele>114.00000</ele>
        <time>2010-01-01T01:15:54Z</time>
      </trkpt>
      <trkpt lat="31.48973000" lon="34.63338000">
        <ele>114.00000</ele>
        <time>2010-01-01T01:15:57Z</time>
      </trkpt>
      <trkpt lat="31.48979000" lon="34.63344000">
        <ele>115.00000</ele>
        <time>2010-01-01T01:16:00Z</time>
      </trkpt>
      <trkpt lat="31.48979000" lon="34.63343000">
        <ele>115.00000</ele>
        <time>2010-01-01T01:16:01Z</time>
      </trkpt>
      <trkpt lat="31.48982000" lon="34.63351000">
        <ele>115.00000</ele>
        <time>2010-01-01T01:16:04Z</time>
      </trkpt>
      <trkpt lat="31.48983000" lon="34.63364000">
        <ele>114.00000</ele>
        <time>2010-01-01T01:16:08Z</time>
      </trkpt>
      <trkpt lat="31.48986000" lon="34.63372000">
        <ele>114.00000</ele>
        <time>2010-01-01T01:16:11Z</time>
      </trkpt>
      <trkpt lat="31.48989000" lon="34.63374000">
        <ele>113.00000</ele>
        <time>2010-01-01T01:16:12Z</time>
      </trkpt>
      <trkpt lat="31.49015000" lon="34.63375000">
        <ele>114.00000</ele>
        <time>2010-01-01T01:16:23Z</time>
      </trkpt>
      <trkpt lat="31.49033000" lon="34.63389000">
        <ele>114.00000</ele>
        <time>2010-01-01T01:16:32Z</time>
      </trkpt>
      <trkpt lat="31.49048000" lon="34.63408000">
        <ele>112.00000</ele>
        <time>2010-01-01T01:16:40Z</time>
      </trkpt>
      <trkpt lat="31.49063000" lon="34.63447000">
        <ele>112.00000</ele>
        <time>2010-01-01T01:16:55Z</time>
      </trkpt>
      <trkpt lat="31.49069000" lon="34.63477000">
        <ele>111.00000</ele>
        <time>2010-01-01T01:17:05Z</time>
      </trkpt>
      <trkpt lat="31.49071000" lon="34.63493000">
        <ele>110.00000</ele>
        <time>2010-01-01T01:17:11Z</time>
      </trkpt>
      <trkpt lat="31.49071000" lon="34.63492000">
        <ele>110.00000</ele>
        <time>2010-01-01T01:17:11Z</time>
      </trkpt>
      <trkpt lat="31.49087000" lon="34.63522000">
        <ele>110.00000</ele>
        <time>2010-01-01T01:17:23Z</time>
      </trkpt>
      <trkpt lat="31.49094000" lon="34.63531000">
        <ele>110.00000</ele>
        <time>2010-01-01T01:17:28Z</time>
      </trkpt>
      <trkpt lat="31.49103000" lon="34.63538000">
        <ele>110.00000</ele>
        <time>2010-01-01T01:17:32Z</time>
      </trkpt>
      <trkpt lat="31.49110000" lon="34.63540000">
        <ele>110.00000</ele>
        <time>2010-01-01T01:17:35Z</time>
      </trkpt>
      <trkpt lat="31.49122000" lon="34.63548000">
        <ele>109.00000</ele>
        <time>2010-01-01T01:17:40Z</time>
      </trkpt>
      <trkpt lat="31.49143000" lon="34.63571000">
        <ele>109.00000</ele>
        <time>2010-01-01T01:17:52Z</time>
      </trkpt>
      <trkpt lat="31.49159000" lon="34.63594000">
        <ele>109.00000</ele>
        <time>2010-01-01T01:18:02Z</time>
      </trkpt>
      <trkpt lat="31.49172000" lon="34.63609000">
        <ele>109.00000</ele>
        <time>2010-01-01T01:18:09Z</time>
      </trkpt>
      <trkpt lat="31.49181000" lon="34.63622000">
        <ele>109.00000</ele>
        <time>2010-01-01T01:18:15Z</time>
      </trkpt>
      <trkpt lat="31.49194000" lon="34.63647000">
        <ele>109.00000</ele>
        <time>2010-01-01T01:18:25Z</time>
      </trkpt>
      <trkpt lat="31.49206000" lon="34.63662000">
        <ele>109.00000</ele>
        <time>2010-01-01T01:18:32Z</time>
      </trkpt>
      <trkpt lat="31.49221000" lon="34.63674000">
        <ele>109.00000</ele>
        <time>2010-01-01T01:18:39Z</time>
      </trkpt>
      <trkpt lat="31.49240000" lon="34.63694000">
        <ele>109.00000</ele>
        <time>2010-01-01T01:18:49Z</time>
      </trkpt>
      <trkpt lat="31.49252000" lon="34.63701000">
        <ele>108.00000</ele>
        <time>2010-01-01T01:18:55Z</time>
      </trkpt>
      <trkpt lat="31.49261000" lon="34.63708000">
        <ele>107.00000</ele>
        <time>2010-01-01T01:18:59Z</time>
      </trkpt>
      <trkpt lat="31.49264000" lon="34.63715000">
        <ele>107.00000</ele>
        <time>2010-01-01T01:19:02Z</time>
      </trkpt>
      <trkpt lat="31.49267000" lon="34.63736000">
        <ele>105.00000</ele>
        <time>2010-01-01T01:19:09Z</time>
      </trkpt>
      <trkpt lat="31.49272000" lon="34.63752000">
        <ele>104.00000</ele>
        <time>2010-01-01T01:19:15Z</time>
      </trkpt>
      <trkpt lat="31.49276000" lon="34.63759000">
        <ele>104.00000</ele>
        <time>2010-01-01T01:19:18Z</time>
      </trkpt>
      <trkpt lat="31.49299000" lon="34.63786000">
        <ele>104.00000</ele>
        <time>2010-01-01T01:19:31Z</time>
      </trkpt>
      <trkpt lat="31.49313000" lon="34.63810000">
        <ele>104.00000</ele>
        <time>2010-01-01T01:19:41Z</time>
      </trkpt>
      <trkpt lat="31.49319000" lon="34.63814000">
        <ele>104.00000</ele>
        <time>2010-01-01T01:19:43Z</time>
      </trkpt>
      <trkpt lat="31.49344000" lon="34.63815000">
        <ele>103.00000</ele>
        <time>2010-01-01T01:19:53Z</time>
      </trkpt>
      <trkpt lat="31.49375000" lon="34.63838000">
        <ele>103.00000</ele>
        <time>2010-01-01T01:20:08Z</time>
      </trkpt>
      <trkpt lat="31.49388000" lon="34.63857000">
        <ele>103.00000</ele>
        <time>2010-01-01T01:20:16Z</time>
      </trkpt>
      <trkpt lat="31.49398000" lon="34.63861000">
        <ele>103.00000</ele>
        <time>2010-01-01T01:20:21Z</time>
      </trkpt>
      <trkpt lat="31.49423000" lon="34.63866000">
        <ele>103.00000</ele>
        <time>2010-01-01T01:20:31Z</time>
      </trkpt>
      <trkpt lat="31.49446000" lon="34.63878000">
        <ele>103.00000</ele>
        <time>2010-01-01T01:20:41Z</time>
      </trkpt>
      <trkpt lat="31.49456000" lon="34.63880000">
        <ele>103.00000</ele>
        <time>2010-01-01T01:20:45Z</time>
      </trkpt>
      <trkpt lat="31.49463000" lon="34.63883000">
        <ele>103.00000</ele>
        <time>2010-01-01T01:20:48Z</time>
      </trkpt>
      <trkpt lat="31.49474000" lon="34.63883000">
        <ele>103.00000</ele>
        <time>2010-01-01T01:20:52Z</time>
      </trkpt>
      <trkpt lat="31.49481000" lon="34.63880000">
        <ele>103.00000</ele>
        <time>2010-01-01T01:20:55Z</time>
      </trkpt>
      <trkpt lat="31.49491000" lon="34.63879000">
        <ele>103.00000</ele>
        <time>2010-01-01T01:20:59Z</time>
      </trkpt>
      <trkpt lat="31.49528000" lon="34.63896000">
        <ele>102.00000</ele>
        <time>2010-01-01T01:21:15Z</time>
      </trkpt>
      <trkpt lat="31.49534000" lon="34.63896000">
        <ele>102.00000</ele>
        <time>2010-01-01T01:21:18Z</time>
      </trkpt>
      <trkpt lat="31.49533000" lon="34.63896000">
        <ele>102.00000</ele>
        <time>2010-01-01T01:21:18Z</time>
      </trkpt>
      <trkpt lat="31.49553000" lon="34.63896000">
        <ele>103.00000</ele>
        <time>2010-01-01T01:21:26Z</time>
      </trkpt>
      <trkpt lat="31.49564000" lon="34.63893000">
        <ele>103.00000</ele>
        <time>2010-01-01T01:21:31Z</time>
      </trkpt>
      <trkpt lat="31.49569000" lon="34.63888000">
        <ele>103.00000</ele>
        <time>2010-01-01T01:21:33Z</time>
      </trkpt>
      <trkpt lat="31.49571000" lon="34.63885000">
        <ele>103.00000</ele>
        <time>2010-01-01T01:21:35Z</time>
      </trkpt>
      <trkpt lat="31.49571000" lon="34.63876000">
        <ele>102.00000</ele>
        <time>2010-01-01T01:21:38Z</time>
      </trkpt>
      <trkpt lat="31.49563000" lon="34.63862000">
        <ele>101.00000</ele>
        <time>2010-01-01T01:21:43Z</time>
      </trkpt>
      <trkpt lat="31.49551000" lon="34.63854000">
        <ele>100.00000</ele>
        <time>2010-01-01T01:21:49Z</time>
      </trkpt>
      <trkpt lat="31.49544000" lon="34.63853000">
        <ele>101.00000</ele>
        <time>2010-01-01T01:21:52Z</time>
      </trkpt>
      <trkpt lat="31.49535000" lon="34.63847000">
        <ele>101.00000</ele>
        <time>2010-01-01T01:21:56Z</time>
      </trkpt>
      <trkpt lat="31.49531000" lon="34.63831000">
        <ele>101.00000</ele>
        <time>2010-01-01T01:22:02Z</time>
      </trkpt>
      <trkpt lat="31.49529000" lon="34.63810000">
        <ele>101.00000</ele>
        <time>2010-01-01T01:22:09Z</time>
      </trkpt>
      <trkpt lat="31.49533000" lon="34.63793000">
        <ele>102.00000</ele>
        <time>2010-01-01T01:22:15Z</time>
      </trkpt>
      <trkpt lat="31.49537000" lon="34.63787000">
        <ele>102.00000</ele>
        <time>2010-01-01T01:22:17Z</time>
      </trkpt>
      <trkpt lat="31.49554000" lon="34.63772000">
        <ele>100.00000</ele>
        <time>2010-01-01T01:22:26Z</time>
      </trkpt>
      <trkpt lat="31.49564000" lon="34.63768000">
        <ele>100.00000</ele>
        <time>2010-01-01T01:22:30Z</time>
      </trkpt>
      <trkpt lat="31.49572000" lon="34.63769000">
        <ele>100.00000</ele>
        <time>2010-01-01T01:22:33Z</time>
      </trkpt>
      <trkpt lat="31.49589000" lon="34.63783000">
        <ele>99.000000</ele>
        <time>2010-01-01T01:22:42Z</time>
      </trkpt>
      <trkpt lat="31.49592000" lon="34.63785000">
        <ele>99.000000</ele>
        <time>2010-01-01T01:22:43Z</time>
      </trkpt>
      <trkpt lat="31.49600000" lon="34.63785000">
        <ele>99.000000</ele>
        <time>2010-01-01T01:22:46Z</time>
      </trkpt>
      <trkpt lat="31.49627000" lon="34.63775000">
        <ele>98.000000</ele>
        <time>2010-01-01T01:22:58Z</time>
      </trkpt>
      <trkpt lat="31.49674000" lon="34.63746000">
        <ele>99.000000</ele>
        <time>2010-01-01T01:23:19Z</time>
      </trkpt>
      <trkpt lat="31.49704000" lon="34.63733000">
        <ele>101.00000</ele>
        <time>2010-01-01T01:23:32Z</time>
      </trkpt>
      <trkpt lat="31.49718000" lon="34.63734000">
        <ele>102.00000</ele>
        <time>2010-01-01T01:23:37Z</time>
      </trkpt>
      <trkpt lat="31.49749000" lon="34.63745000">
        <ele>104.00000</ele>
        <time>2010-01-01T01:23:50Z</time>
      </trkpt>
      <trkpt lat="31.49771000" lon="34.63746000">
        <ele>103.00000</ele>
        <time>2010-01-01T01:23:59Z</time>
      </trkpt>
      <trkpt lat="31.49784000" lon="34.63739000">
        <ele>102.00000</ele>
        <time>2010-01-01T01:24:05Z</time>
      </trkpt>
      <trkpt lat="31.49794000" lon="34.63728000">
        <ele>100.00000</ele>
        <time>2010-01-01T01:24:10Z</time>
      </trkpt>
      <trkpt lat="31.49795000" lon="34.63720000">
        <ele>99.000000</ele>
        <time>2010-01-01T01:24:13Z</time>
      </trkpt>
      <trkpt lat="31.49792000" lon="34.63704000">
        <ele>98.000000</ele>
        <time>2010-01-01T01:24:19Z</time>
      </trkpt>
      <trkpt lat="31.49793000" lon="34.63698000">
        <ele>97.000000</ele>
        <time>2010-01-01T01:24:21Z</time>
      </trkpt>
      <trkpt lat="31.49799000" lon="34.63690000">
        <ele>97.000000</ele>
        <time>2010-01-01T01:24:24Z</time>
      </trkpt>
      <trkpt lat="31.49816000" lon="34.63686000">
        <ele>96.000000</ele>
        <time>2010-01-01T01:24:31Z</time>
      </trkpt>
      <trkpt lat="31.49834000" lon="34.63686000">
        <ele>96.000000</ele>
        <time>2010-01-01T01:24:39Z</time>
      </trkpt>
      <trkpt lat="31.49872000" lon="34.63698000">
        <ele>97.000000</ele>
        <time>2010-01-01T01:24:54Z</time>
      </trkpt>
      <trkpt lat="31.49886000" lon="34.63698000">
        <ele>98.000000</ele>
        <time>2010-01-01T01:25:00Z</time>
      </trkpt>
      <trkpt lat="31.49897000" lon="34.63695000">
        <ele>97.000000</ele>
        <time>2010-01-01T01:25:04Z</time>
      </trkpt>
      <trkpt lat="31.49931000" lon="34.63704000">
        <ele>95.000000</ele>
        <time>2010-01-01T01:25:18Z</time>
      </trkpt>
      <trkpt lat="31.49962000" lon="34.63716000">
        <ele>94.000000</ele>
        <time>2010-01-01T01:25:31Z</time>
      </trkpt>
      <trkpt lat="31.49990000" lon="34.63734000">
        <ele>95.000000</ele>
        <time>2010-01-01T01:25:44Z</time>
      </trkpt>
      <trkpt lat="31.50001000" lon="34.63744000">
        <ele>95.000000</ele>
        <time>2010-01-01T01:25:50Z</time>
      </trkpt>
      <trkpt lat="31.50021000" lon="34.63768000">
        <ele>95.000000</ele>
        <time>2010-01-01T01:26:01Z</time>
      </trkpt>
      <trkpt lat="31.50032000" lon="34.63790000">
        <ele>94.000000</ele>
        <time>2010-01-01T01:26:10Z</time>
      </trkpt>
      <trkpt lat="31.50071000" lon="34.63917000">
        <ele>92.000000</ele>
        <time>2010-01-01T01:26:56Z</time>
      </trkpt>
      <trkpt lat="31.50085000" lon="34.63947000">
        <ele>92.000000</ele>
        <time>2010-01-01T01:27:08Z</time>
      </trkpt>
      <trkpt lat="31.50112000" lon="34.63986000">
        <ele>93.000000</ele>
        <time>2010-01-01T01:27:25Z</time>
      </trkpt>
      <trkpt lat="31.50130000" lon="34.64007000">
        <ele>93.000000</ele>
        <time>2010-01-01T01:27:35Z</time>
      </trkpt>
      <trkpt lat="31.50142000" lon="34.64016000">
        <ele>92.000000</ele>
        <time>2010-01-01T01:27:41Z</time>
      </trkpt>
      <trkpt lat="31.50154000" lon="34.64024000">
        <ele>92.000000</ele>
        <time>2010-01-01T01:27:46Z</time>
      </trkpt>
      <trkpt lat="31.50175000" lon="34.64033000">
        <ele>92.000000</ele>
        <time>2010-01-01T01:27:55Z</time>
      </trkpt>
      <trkpt lat="31.50182000" lon="34.64033000">
        <ele>92.000000</ele>
        <time>2010-01-01T01:27:58Z</time>
      </trkpt>
      <trkpt lat="31.50188000" lon="34.64030000">
        <ele>92.000000</ele>
        <time>2010-01-01T01:28:01Z</time>
      </trkpt>
      <trkpt lat="31.50197000" lon="34.64017000">
        <ele>92.000000</ele>
        <time>2010-01-01T01:28:06Z</time>
      </trkpt>
      <trkpt lat="31.50210000" lon="34.64025000">
        <ele>93.000000</ele>
        <time>2010-01-01T01:28:12Z</time>
      </trkpt>
      <trkpt lat="31.50224000" lon="34.64036000">
        <ele>93.000000</ele>
        <time>2010-01-01T01:28:19Z</time>
      </trkpt>
      <trkpt lat="31.50224000" lon="34.64035000">
        <ele>93.000000</ele>
        <time>2010-01-01T01:28:19Z</time>
      </trkpt>
      <trkpt lat="31.50231000" lon="34.64041000">
        <ele>93.000000</ele>
        <time>2010-01-01T01:28:23Z</time>
      </trkpt>
      <trkpt lat="31.50244000" lon="34.64046000">
        <ele>93.000000</ele>
        <time>2010-01-01T01:28:28Z</time>
      </trkpt>
      <trkpt lat="31.50258000" lon="34.64041000">
        <ele>92.000000</ele>
        <time>2010-01-01T01:28:34Z</time>
      </trkpt>
      <trkpt lat="31.50271000" lon="34.64027000">
        <ele>91.000000</ele>
        <time>2010-01-01T01:28:41Z</time>
      </trkpt>
      <trkpt lat="31.50279000" lon="34.64013000">
        <ele>90.000000</ele>
        <time>2010-01-01T01:28:47Z</time>
      </trkpt>
      <trkpt lat="31.50291000" lon="34.63987000">
        <ele>91.000000</ele>
        <time>2010-01-01T01:28:57Z</time>
      </trkpt>
      <trkpt lat="31.50308000" lon="34.63941000">
        <ele>95.000000</ele>
        <time>2010-01-01T01:29:14Z</time>
      </trkpt>
      <trkpt lat="31.50315000" lon="34.63931000">
        <ele>95.000000</ele>
        <time>2010-01-01T01:29:18Z</time>
      </trkpt>
      <trkpt lat="31.50342000" lon="34.63903000">
        <ele>94.000000</ele>
        <time>2010-01-01T01:29:33Z</time>
      </trkpt>
      <trkpt lat="31.50351000" lon="34.63896000">
        <ele>93.000000</ele>
        <time>2010-01-01T01:29:37Z</time>
      </trkpt>
      <trkpt lat="31.50361000" lon="34.63892000">
        <ele>93.000000</ele>
        <time>2010-01-01T01:29:41Z</time>
      </trkpt>
      <trkpt lat="31.50401000" lon="34.63892000">
        <ele>91.000000</ele>
        <time>2010-01-01T01:29:57Z</time>
      </trkpt>
      <trkpt lat="31.50425000" lon="34.63884000">
        <ele>91.000000</ele>
        <time>2010-01-01T01:30:07Z</time>
      </trkpt>
      <trkpt lat="31.50443000" lon="34.63883000">
        <ele>92.000000</ele>
        <time>2010-01-01T01:30:15Z</time>
      </trkpt>
      <trkpt lat="31.50456000" lon="34.63888000">
        <ele>91.000000</ele>
        <time>2010-01-01T01:30:20Z</time>
      </trkpt>
      <trkpt lat="31.50489000" lon="34.63904000">
        <ele>90.000000</ele>
        <time>2010-01-01T01:30:34Z</time>
      </trkpt>
      <trkpt lat="31.50496000" lon="34.63904000">
        <ele>90.000000</ele>
        <time>2010-01-01T01:30:37Z</time>
      </trkpt>
      <trkpt lat="31.50508000" lon="34.63897000">
        <ele>90.000000</ele>
        <time>2010-01-01T01:30:43Z</time>
      </trkpt>
      <trkpt lat="31.50515000" lon="34.63896000">
        <ele>91.000000</ele>
        <time>2010-01-01T01:30:45Z</time>
      </trkpt>
      <trkpt lat="31.50523000" lon="34.63908000">
        <ele>91.000000</ele>
        <time>2010-01-01T01:30:51Z</time>
      </trkpt>
      <trkpt lat="31.50537000" lon="34.63940000">
        <ele>91.000000</ele>
        <time>2010-01-01T01:31:03Z</time>
      </trkpt>
      <trkpt lat="31.50544000" lon="34.63969000">
        <ele>91.000000</ele>
        <time>2010-01-01T01:31:13Z</time>
      </trkpt>
      <trkpt lat="31.50544000" lon="34.64001000">
        <ele>91.000000</ele>
        <time>2010-01-01T01:31:24Z</time>
      </trkpt>
      <trkpt lat="31.50551000" lon="34.64005000">
        <ele>91.000000</ele>
        <time>2010-01-01T01:31:27Z</time>
      </trkpt>
      <trkpt lat="31.50564000" lon="34.64010000">
        <ele>90.000000</ele>
        <time>2010-01-01T01:31:33Z</time>
      </trkpt>
      <trkpt lat="31.50576000" lon="34.64020000">
        <ele>89.000000</ele>
        <time>2010-01-01T01:31:39Z</time>
      </trkpt>
      <trkpt lat="31.50579000" lon="34.64020000">
        <ele>89.000000</ele>
        <time>2010-01-01T01:31:40Z</time>
      </trkpt>
      <trkpt lat="31.50585000" lon="34.64015000">
        <ele>89.000000</ele>
        <time>2010-01-01T01:31:43Z</time>
      </trkpt>
      <trkpt lat="31.50600000" lon="34.64004000">
        <ele>89.000000</ele>
        <time>2010-01-01T01:31:50Z</time>
      </trkpt>
      <trkpt lat="31.50614000" lon="34.64000000">
        <ele>89.000000</ele>
        <time>2010-01-01T01:31:56Z</time>
      </trkpt>
      <trkpt lat="31.50632000" lon="34.63999000">
        <ele>90.000000</ele>
        <time>2010-01-01T01:32:03Z</time>
      </trkpt>
      <trkpt lat="31.50671000" lon="34.63985000">
        <ele>93.000000</ele>
        <time>2010-01-01T01:32:19Z</time>
      </trkpt>
      <trkpt lat="31.50703000" lon="34.63972000">
        <ele>94.000000</ele>
        <time>2010-01-01T01:32:33Z</time>
      </trkpt>
      <trkpt lat="31.50729000" lon="34.63958000">
        <ele>93.000000</ele>
        <time>2010-01-01T01:32:44Z</time>
      </trkpt>
      <trkpt lat="31.50736000" lon="34.63957000">
        <ele>93.000000</ele>
        <time>2010-01-01T01:32:47Z</time>
      </trkpt>
      <trkpt lat="31.50756000" lon="34.63980000">
        <ele>95.000000</ele>
        <time>2010-01-01T01:32:58Z</time>
      </trkpt>
      <trkpt lat="31.50775000" lon="34.63992000">
        <ele>95.000000</ele>
        <time>2010-01-01T01:33:07Z</time>
      </trkpt>
      <trkpt lat="31.50778000" lon="34.63999000">
        <ele>95.000000</ele>
        <time>2010-01-01T01:33:09Z</time>
      </trkpt>
      <trkpt lat="31.50778000" lon="34.64003000">
        <ele>96.000000</ele>
        <time>2010-01-01T01:33:11Z</time>
      </trkpt>
      <trkpt lat="31.50772000" lon="34.64028000">
        <ele>98.000000</ele>
        <time>2010-01-01T01:33:20Z</time>
      </trkpt>
      <trkpt lat="31.50776000" lon="34.64035000">
        <ele>98.000000</ele>
        <time>2010-01-01T01:33:23Z</time>
      </trkpt>
      <trkpt lat="31.50779000" lon="34.64037000">
        <ele>98.000000</ele>
        <time>2010-01-01T01:33:24Z</time>
      </trkpt>
      <trkpt lat="31.50811000" lon="34.64038000">
        <ele>98.000000</ele>
        <time>2010-01-01T01:33:37Z</time>
      </trkpt>
      <trkpt lat="31.50826000" lon="34.64049000">
        <ele>99.000000</ele>
        <time>2010-01-01T01:33:44Z</time>
      </trkpt>
      <trkpt lat="31.50833000" lon="34.64058000">
        <ele>101.00000</ele>
        <time>2010-01-01T01:33:48Z</time>
      </trkpt>
      <trkpt lat="31.50846000" lon="34.64088000">
        <ele>105.00000</ele>
        <time>2010-01-01T01:34:00Z</time>
      </trkpt>
      <trkpt lat="31.50857000" lon="34.64099000">
        <ele>106.00000</ele>
        <time>2010-01-01T01:34:05Z</time>
      </trkpt>
      <trkpt lat="31.50872000" lon="34.64123000">
        <ele>105.00000</ele>
        <time>2010-01-01T01:34:15Z</time>
      </trkpt>
      <trkpt lat="31.50883000" lon="34.64133000">
        <ele>105.00000</ele>
        <time>2010-01-01T01:34:21Z</time>
      </trkpt>
      <trkpt lat="31.50889000" lon="34.64143000">
        <ele>106.00000</ele>
        <time>2010-01-01T01:34:25Z</time>
      </trkpt>
      <trkpt lat="31.50898000" lon="34.64149000">
        <ele>106.00000</ele>
        <time>2010-01-01T01:34:29Z</time>
      </trkpt>
      <trkpt lat="31.50913000" lon="34.64151000">
        <ele>107.00000</ele>
        <time>2010-01-01T01:34:35Z</time>
      </trkpt>
      <trkpt lat="31.50932000" lon="34.64161000">
        <ele>108.00000</ele>
        <time>2010-01-01T01:34:44Z</time>
      </trkpt>
      <trkpt lat="31.50954000" lon="34.64176000">
        <ele>108.00000</ele>
        <time>2010-01-01T01:34:54Z</time>
      </trkpt>
      <trkpt lat="31.50962000" lon="34.64184000">
        <ele>108.00000</ele>
        <time>2010-01-01T01:34:58Z</time>
      </trkpt>
      <trkpt lat="31.50975000" lon="34.64192000">
        <ele>107.00000</ele>
        <time>2010-01-01T01:35:04Z</time>
      </trkpt>
      <trkpt lat="31.50985000" lon="34.64195000">
        <ele>107.00000</ele>
        <time>2010-01-01T01:35:08Z</time>
      </trkpt>
      <trkpt lat="31.51007000" lon="34.64192000">
        <ele>105.00000</ele>
        <time>2010-01-01T01:35:17Z</time>
      </trkpt>
      <trkpt lat="31.51027000" lon="34.64232000">
        <ele>101.00000</ele>
        <time>2010-01-01T01:35:33Z</time>
      </trkpt>
      <trkpt lat="31.51037000" lon="34.64259000">
        <ele>101.00000</ele>
        <time>2010-01-01T01:35:43Z</time>
      </trkpt>
      <trkpt lat="31.51041000" lon="34.64271000">
        <ele>101.00000</ele>
        <time>2010-01-01T01:35:47Z</time>
      </trkpt>
      <trkpt lat="31.51041000" lon="34.64313000">
        <ele>104.00000</ele>
        <time>2010-01-01T01:36:02Z</time>
      </trkpt>
      <trkpt lat="31.51044000" lon="34.64355000">
        <ele>104.00000</ele>
        <time>2010-01-01T01:36:16Z</time>
      </trkpt>
      <trkpt lat="31.51042000" lon="34.64389000">
        <ele>105.00000</ele>
        <time>2010-01-01T01:36:28Z</time>
      </trkpt>
      <trkpt lat="31.51035000" lon="34.64439000">
        <ele>106.00000</ele>
        <time>2010-01-01T01:36:45Z</time>
      </trkpt>
      <trkpt lat="31.51035000" lon="34.64456000">
        <ele>106.00000</ele>
        <time>2010-01-01T01:36:51Z</time>
      </trkpt>
      <trkpt lat="31.51039000" lon="34.64489000">
        <ele>106.00000</ele>
        <time>2010-01-01T01:37:02Z</time>
      </trkpt>
      <trkpt lat="31.51038000" lon="34.64530000">
        <ele>108.00000</ele>
        <time>2010-01-01T01:37:16Z</time>
      </trkpt>
      <trkpt lat="31.51032000" lon="34.64577000">
        <ele>109.00000</ele>
        <time>2010-01-01T01:37:32Z</time>
      </trkpt>
      <trkpt lat="31.51037000" lon="34.64628000">
        <ele>107.00000</ele>
        <time>2010-01-01T01:37:50Z</time>
      </trkpt>
      <trkpt lat="31.51035000" lon="34.64640000">
        <ele>107.00000</ele>
        <time>2010-01-01T01:37:54Z</time>
      </trkpt>
      <trkpt lat="31.51011000" lon="34.64729000">
        <ele>100.00000</ele>
        <time>2010-01-01T01:38:26Z</time>
      </trkpt>
      <trkpt lat="31.51005000" lon="34.64758000">
        <ele>99.000000</ele>
        <time>2010-01-01T01:38:36Z</time>
      </trkpt>
      <trkpt lat="31.51005000" lon="34.64774000">
        <ele>98.000000</ele>
        <time>2010-01-01T01:38:41Z</time>
      </trkpt>
      <trkpt lat="31.51008000" lon="34.64787000">
        <ele>97.000000</ele>
        <time>2010-01-01T01:38:46Z</time>
      </trkpt>
      <trkpt lat="31.51014000" lon="34.64802000">
        <ele>97.000000</ele>
        <time>2010-01-01T01:38:52Z</time>
      </trkpt>
      <trkpt lat="31.51012000" lon="34.64819000">
        <ele>96.000000</ele>
        <time>2010-01-01T01:38:58Z</time>
      </trkpt>
      <trkpt lat="31.51025000" lon="34.64815000">
        <ele>97.000000</ele>
        <time>2010-01-01T01:39:03Z</time>
      </trkpt>
    </trkseg>
  </trk>
</gpx>

